Map

Track Data

SID SEASON NUMBER BASIN SUBBASIN NAME ISO_TIME NATURE LAT LON WMO_WIND WMO_PRES WMO_AGENCY TRACK_TYPE DIST2LAND LANDFALL IFLAG USA_AGENCY USA_ATCF_ID USA_LAT USA_LON USA_RECORD USA_STATUS USA_WIND USA_PRES USA_SSHS USA_R34_NE USA_R34_SE USA_R34_SW USA_R34_NW USA_R50_NE USA_R50_SE USA_R50_SW USA_R50_NW USA_R64_NE USA_R64_SE USA_R64_SW USA_R64_NW USA_POCI USA_ROCI USA_RMW USA_EYE TOKYO_LAT TOKYO_LON TOKYO_GRADE TOKYO_WIND TOKYO_PRES TOKYO_R50_DIR TOKYO_R50_LONG TOKYO_R50_SHORT TOKYO_R30_DIR TOKYO_R30_LONG TOKYO_R30_SHORT TOKYO_LAND CMA_LAT CMA_LON CMA_CAT CMA_WIND CMA_PRES HKO_LAT HKO_LON HKO_CAT HKO_WIND HKO_PRES NEWDELHI_LAT NEWDELHI_LON NEWDELHI_GRADE NEWDELHI_WIND NEWDELHI_PRES NEWDELHI_CI NEWDELHI_DP NEWDELHI_POCI REUNION_LAT REUNION_LON REUNION_TYPE REUNION_WIND REUNION_PRES REUNION_TNUM REUNION_CI REUNION_RMW REUNION_R34_NE REUNION_R34_SE REUNION_R34_SW REUNION_R34_NW REUNION_R50_NE REUNION_R50_SE REUNION_R50_SW REUNION_R50_NW REUNION_R64_NE REUNION_R64_SE REUNION_R64_SW REUNION_R64_NW BOM_LAT BOM_LON BOM_TYPE BOM_WIND BOM_PRES BOM_TNUM BOM_CI BOM_RMW BOM_R34_NE BOM_R34_SE BOM_R34_SW BOM_R34_NW BOM_R50_NE BOM_R50_SE BOM_R50_SW BOM_R50_NW BOM_R64_NE BOM_R64_SE BOM_R64_SW BOM_R64_NW BOM_ROCI BOM_POCI BOM_EYE BOM_POS_METHOD BOM_PRES_METHOD NADI_LAT NADI_LON NADI_CAT NADI_WIND NADI_PRES WELLINGTON_LAT WELLINGTON_LON WELLINGTON_WIND WELLINGTON_PRES DS824_LAT DS824_LON DS824_STAGE DS824_WIND DS824_PRES TD9636_LAT TD9636_LON TD9636_STAGE TD9636_WIND TD9636_PRES TD9635_LAT TD9635_LON TD9635_WIND TD9635_PRES TD9635_ROCI NEUMANN_LAT NEUMANN_LON NEUMANN_CLASS NEUMANN_WIND NEUMANN_PRES MLC_LAT MLC_LON MLC_CLASS MLC_WIND MLC_PRES USA_GUST BOM_GUST BOM_GUST_PER REUNION_GUST REUNION_GUST_PER USA_SEAHGT USA_SEARAD_NE USA_SEARAD_SE USA_SEARAD_SW USA_SEARAD_NW STORM_SPEED STORM_DIR
1997013S08101 1997 5 SI WA HELINDA:PANCHO 1997-01-13 06:00:00 TS -8.30000 100.500 main 499 499 O___________O_ jtwc_sh SH191997 -8.30000 100.500 15 -1 -8.30000 100.500 TC 15 3 239
1997013S08101 1997 5 SI WA HELINDA:PANCHO 1997-01-13 09:00:00 TS -8.39001 100.353 main 515 515 P___________P_ SH191997 -8.39001 100.353 15 -1 -8.39001 100.353 TC 15 4 236
1997013S08101 1997 5 SI WA HELINDA:PANCHO 1997-01-13 12:00:00 TS -8.50000 100.200 main 537 537 O___________O_ jtwc_sh SH191997 -8.50000 100.200 15 -1 -8.50000 100.200 TC 15 4 231
1997013S08101 1997 5 SI WA HELINDA:PANCHO 1997-01-13 15:00:00 TS -8.64250 100.043 main 560 560 P___________P_ SH191997 -8.64250 100.043 15 -1 -8.64250 100.043 TC 15 4 224
1997013S08101 1997 5 SI WA HELINDA:PANCHO 1997-01-13 18:00:00 TS -8.80000 99.9000 main 584 584 O___________O_ jtwc_sh SH191997 -8.80000 99.9000 15 -1 -8.80000 99.9000 TC 15 4 219
1997013S08101 1997 5 SI WA HELINDA:PANCHO 1997-01-13 21:00:00 TS -8.94999 99.7925 main 600 600 P___________P_ SH191997 -8.94999 99.7925 15 -1 -8.94999 99.7925 TC 15 4 213
1997013S08101 1997 5 SI WA HELINDA:PANCHO 1997-01-14 00:00:00 TS -9.10000 99.7000 main 624 624 O___________O_ jtwc_sh SH191997 -9.10000 99.7000 15 -1 -9.10000 99.7000 TC 15 3 212
1997013S08101 1997 5 SI WA HELINDA:PANCHO 1997-01-14 03:00:00 TS -9.24249 99.6075 main 640 640 P___________P_ SH191997 -9.24249 99.6075 15 -1 -9.24249 99.6075 TC 15 4 213
1997013S08101 1997 5 SI WA HELINDA:PANCHO 1997-01-14 06:00:00 TS -9.40000 99.5000 main 664 664 O___________O_ jtwc_sh SH191997 -9.40000 99.5000 15 -1 -9.40000 99.5000 TC 15 4 214
1997013S08101 1997 5 SI WA HELINDA:PANCHO 1997-01-14 09:00:00 TS -9.59249 99.3650 main 688 688 P___________P_ SH191997 -9.59249 99.3650 15 -1 -9.59249 99.3650 TC 15 5 216
1997013S08101 1997 5 SI WA HELINDA:PANCHO 1997-01-14 12:00:00 TS -9.80000 99.2000 main 720 720 O___________O_ jtwc_sh SH191997 -9.80000 99.2000 15 -1 -9.80000 99.2000 TC 15 5 219
1997013S08101 1997 5 SI WA HELINDA:PANCHO 1997-01-14 15:00:00 TS -10.0075 99.0225 main 751 751 P___________P_ SH191997 -10.0075 99.0225 15 -1 -10.0075 99.0225 TC 15 6 225
1997013S08101 1997 5 SI WA HELINDA:PANCHO 1997-01-14 18:00:00 TS -10.2000 98.8000 main 782 782 O___________O_ jtwc_sh SH191997 -10.2000 98.8000 15 -1 -10.2000 98.8000 TC 15 6 236
1997013S08101 1997 5 SI WA HELINDA:PANCHO 1997-01-14 21:00:00 TS -10.3575 98.5000 main 820 820 P___________P_ SH191997 -10.3575 98.5000 15 -1 -10.3575 98.5000 TC 15 7 243
1997013S08101 1997 5 SI WA HELINDA:PANCHO 1997-01-15 00:00:00 TS -10.5000 98.2000 main 848 848 O___________O_ jtwc_sh SH191997 -10.5000 98.2000 15 -1 -10.5000 98.2000 TC 15 6 242
1997013S08101 1997 5 SI WA HELINDA:PANCHO 1997-01-15 03:00:00 TS -10.6425 97.9625 main 871 871 P___________P_ SH191997 -10.6425 97.9625 15 -1 -10.6425 97.9625 TC 15 5 233
1997013S08101 1997 5 SI WA HELINDA:PANCHO 1997-01-15 06:00:00 TS -10.8000 97.8000 main 902 902 O___________O_ jtwc_sh SH191997 -10.8000 97.8000 15 -1 -10.8000 97.8000 TC 15 4 215
1997013S08101 1997 5 SI WA HELINDA:PANCHO 1997-01-15 09:00:00 TS -11.0000 97.7125 main 926 926 P___________P_ SH191997 -11.0000 97.7125 17 -1 -11.0000 97.7125 TC 17 4 193
1997013S08101 1997 5 SI WA HELINDA:PANCHO 1997-01-15 12:00:00 TS -11.2000 97.7000 main 944 944 O___________O_ jtwc_sh SH191997 -11.2000 97.7000 20 -1 -11.2000 97.7000 TC 20 4 0
1997013S08101 1997 5 SI WA HELINDA:PANCHO 1997-01-15 15:00:00 TS -11.3650 97.7200 main 962 955 P___________P_ SH191997 -11.3650 97.7200 20 -1 -11.3650 97.7200 TC 20 3 163
1997013S08101 1997 5 SI WA HELINDA:PANCHO 1997-01-15 18:00:00 TS -11.5000 97.8000 main 964 964 O___________O_ jtwc_sh SH191997 -11.5000 97.8000 20 -1 -11.5000 97.8000 TC 20 3 140
1997013S08101 1997 5 SI WA HELINDA:PANCHO 1997-01-15 21:00:00 TS -11.6225 97.9425 main 965 953 P___________P_ SH191997 -11.6225 97.9425 20 -1 -11.6225 97.9425 TC 20 4 124
1997013S08101 1997 5 SI WA HELINDA:PANCHO 1997-01-16 00:00:00 TS -11.7000 98.1000 main 953 944 O___________O_ jtwc_sh SH191997 -11.7000 98.1000 20 -1 -11.7000 98.1000 TC 20 3 112
1997013S08101 1997 5 SI WA HELINDA:PANCHO 1997-01-16 03:00:00 TS -11.7300 98.2150 main 944 935 P___________P_ SH191997 -11.7300 98.2150 22 -1 -11.7300 98.2150 TC 22 2 90
1997013S08101 1997 5 SI WA HELINDA:PANCHO 1997-01-16 06:00:00 TS -11.7000 98.3000 main 935 920 O___________O_ jtwc_sh SH191997 -11.7000 98.3000 25 -1 -11.7000 98.3000 TC 25 2 54
1997013S08101 1997 5 SI WA HELINDA:PANCHO 1997-01-16 09:00:00 TS -11.6225 98.3650 main 920 913 P___________P_ SH191997 -11.6225 98.3650 25 -1 -11.6225 98.3650 TC 25 2 27
1997013S08101 1997 5 SI WA HELINDA:PANCHO 1997-01-16 12:00:00 TS -11.5000 98.4000 main 913 907 O___________O_ jtwc_sh SH191997 -11.5000 98.4000 25 -1 -11.5000 98.4000 TC 25 3 12
1997013S08101 1997 5 SI WA HELINDA:PANCHO 1997-01-16 15:00:00 TS -11.3575 98.4225 main 907 895 P___________P_ SH191997 -11.3575 98.4225 25 -1 -11.3575 98.4225 TC 25 3 0
1997013S08101 1997 5 SI WA HELINDA:PANCHO 1997-01-16 18:00:00 TS -11.2000 98.4000 main 895 888 O___________O_ jtwc_sh SH191997 -11.2000 98.4000 25 -1 -11.2000 98.4000 TC 25 3 343
1997013S08101 1997 5 SI WA HELINDA:PANCHO 1997-01-16 21:00:00 TS -11.0425 98.3225 main 886 884 P___________P_ SH191997 -11.0425 98.3225 25 -1 -11.0425 98.3225 TC 25 4 327
1997013S08101 1997 5 SI WA HELINDA:PANCHO 1997-01-17 00:00:00 TS -10.9000 98.2000 main 884 882 O___________O_ jtwc_sh SH191997 -10.9000 98.2000 25 -1 -10.9000 98.2000 TC 25 4 314
1997013S08101 1997 5 SI WA HELINDA:PANCHO 1997-01-17 03:00:00 TS -10.7925 98.0575 main 882 879 P___________P_ SH191997 -10.7925 98.0575 25 -1 -10.7925 98.0575 TC 25 4 304
1997013S08101 1997 5 SI WA HELINDA:PANCHO 1997-01-17 06:00:00 TS -10.7000 97.9000 main 886 885 O___________O_ jtwc_sh SH191997 -10.7000 97.9000 25 -1 -10.7000 97.9000 TC 25 4 303
1997013S08101 1997 5 SI WA HELINDA:PANCHO 1997-01-17 09:00:00 TS -10.5925 97.7500 main 885 883 P___________P_ SH191997 -10.5925 97.7500 25 -1 -10.5925 97.7500 TC 25 4 304
1997013S08101 1997 5 SI WA HELINDA:PANCHO 1997-01-17 12:00:00 TS -10.5000 97.6000 main 890 889 O___________O_ jtwc_sh SH191997 -10.5000 97.6000 25 -1 -10.5000 97.6000 TC 25 3 297
1997013S08101 1997 5 SI WA HELINDA:PANCHO 1997-01-17 15:00:00 TS -10.4425 97.4425 main 897 897 P___________P_ SH191997 -10.4425 97.4425 25 -1 -10.4425 97.4425 TC 25 3 289
1997013S08101 1997 5 SI WA HELINDA:PANCHO 1997-01-17 18:00:00 TS -10.4000 97.3000 main 904 904 O___________O_ jtwc_sh SH191997 -10.4000 97.3000 25 -1 -10.4000 97.3000 TC 25 3 289
1997013S08101 1997 5 SI WA HELINDA:PANCHO 1997-01-17 21:00:00 TS -10.3575 97.1925 main 911 902 P___________P_ SH191997 -10.3575 97.1925 25 -1 -10.3575 97.1925 TC 25 2 297
1997013S08101 1997 5 SI WA HELINDA:PANCHO 1997-01-18 00:00:00 TS -10.3000 97.1000 main 909 908 O___________O_ jtwc_sh SH191997 -10.3000 97.1000 25 -1 -10.3000 97.1000 TC 25 2 309
1997013S08101 1997 5 SI WA HELINDA:PANCHO 1997-01-18 03:00:00 TS -10.2075 97.0000 main 908 899 P___________P_ SH191997 -10.2075 97.0000 25 -1 -10.2075 97.0000 TC 25 3 315
1997013S08101 1997 5 SI WA HELINDA:PANCHO 1997-01-18 06:00:00 TS -10.1000 96.9000 main 906 905 O___________O_ jtwc_sh SH191997 -10.1000 96.9000 25 -1 -10.1000 96.9000 TC 25 4 313
1997013S08101 1997 5 SI WA HELINDA:PANCHO 1997-01-18 07:00:00 TS -10.0148 96.7926 20 1006 bom main 905 905 P_____O_____P_ SH191997 -10.0667 96.8667 25 -1 -9.60000 96.2000 20 20 1006 1.00000 134 3 5 -10.0667 96.8667 TC 25 6 309
1997013S08101 1997 5 SI WA HELINDA:PANCHO 1997-01-18 09:00:00 TS -9.90687 96.6564 main 905 904 P_____P_____P_ SH191997 -10.0000 96.8000 25 -1 -9.53436 96.0820 20 -10.0000 96.8000 TC 25 5 308
1997013S08101 1997 5 SI WA HELINDA:PANCHO 1997-01-18 12:00:00 TS -9.77443 96.4849 main 912 912 O_____P_____O_ jtwc_sh SH191997 -9.90000 96.7000 25 -1 -9.43957 95.9113 20 -9.90000 96.7000 TC 25 4 307
1997013S08101 1997 5 SI WA HELINDA:PANCHO 1997-01-18 15:00:00 TS -9.65144 96.3139 main 920 912 P_____P_____P_ SH191997 -9.80000 96.5925 25 -1 -9.35431 95.7567 20 -9.80000 96.5925 TC 25 3 308
1997013S08101 1997 5 SI WA HELINDA:PANCHO 1997-01-18 18:00:00 TS -9.56146 96.2093 main 920 913 O_____P_____O_ jtwc_sh SH191997 -9.70000 96.5000 25 -1 -9.28438 95.6278 20 -9.70000 96.5000 TC 25 2 315
1997013S08101 1997 5 SI WA HELINDA:PANCHO 1997-01-18 21:00:00 TS -9.47852 96.1397 main 921 914 P_____P_____P_ SH191997 -9.59999 96.4425 25 -1 -9.23558 95.5342 20 -9.59999 96.4425 TC 25 2 324
1997013S08101 1997 5 SI WA HELINDA:PANCHO 1997-01-19 00:00:00 TS -9.40458 96.0952 main 914 903 O_____P_____O_ jtwc_sh SH191997 -9.50000 96.4000 25 -1 -9.21373 95.4855 20 -9.50000 96.4000 TC 25 2 330
1997013S08101 1997 5 SI WA HELINDA:PANCHO 1997-01-19 03:00:00 TS -9.34153 96.0637 main 903 903 P_____P_____P_ SH191997 -9.40000 96.3500 25 -1 -9.22460 95.4911 20 -9.40000 96.3500 TC 25 1 343
1997013S08101 1997 5 SI WA HELINDA:PANCHO 1997-01-19 06:00:00 TS -9.29133 96.0536 main 903 903 O_____P_____O_ jtwc_sh SH191997 -9.30000 96.3000 25 -1 -9.27399 95.5609 20 -9.30000 96.3000 TC 25 1 0
1997013S08101 1997 5 SI WA HELINDA:PANCHO 1997-01-19 07:00:00 TS -9.27253 96.0573 20 1004 bom main 903 893 P_____O_____P_ SH191997 -9.25879 96.2860 25 -1 -9.30000 95.6000 20 20 1004 1.00000 134 3 5 -9.25879 96.2860 TC 25 1 23
1997013S08101 1997 5 SI WA HELINDA:PANCHO 1997-01-19 09:00:00 TS -9.23999 96.0715 main 893 893 P_____P_____P_ SH191997 -9.17750 96.2575 27 -1 -9.36498 95.6996 20 21 1003 134 -9.17750 96.2575 TC 27 1 44
1997013S08101 1997 5 SI WA HELINDA:PANCHO 1997-01-19 12:00:00 TS -9.22334 96.0859 main 893 893 O_____P_____O_ jtwc_sh SH191997 -9.10000 96.2000 30 -1 -9.47002 95.8577 20 24 1002 134 -9.10000 96.2000 TC 30 0 0
1997013S08101 1997 5 SI WA HELINDA:PANCHO 1997-01-19 13:00:00 TS -9.23128 96.0781 25 1002 bom main 893 893 P_____O_____P_ SH191997 -9.09692 96.1671 30 -1 -9.50000 95.9000 20 25 1002 2.00000 134 3 5 -9.09692 96.1671 TC 30 1 231
1997013S08101 1997 5 SI WA HELINDA:PANCHO 1997-01-19 15:00:00 TS -9.25860 96.0429 main 907 907 P_____P_____P_ SH191997 -9.12001 96.0925 30 -1 -9.53579 95.9437 20 26 1000 134 -9.12001 96.0925 TC 30 2 220
1997013S08101 1997 5 SI WA HELINDA:PANCHO 1997-01-19 18:00:00 TS -9.32675 95.9943 main 907 907 O_____P_____O_ jtwc_sh SH191997 -9.20000 96.0000 30 -1 -9.58024 95.9829 20 29 998 134 -9.20000 96.0000 TC 30 2 209
1997013S08101 1997 5 SI WA HELINDA:PANCHO 1997-01-19 19:00:00 TS -9.35000 95.9924 30 998 bom main 907 918 P_____O_____P_ SH191997 -9.22500 95.9886 30 -1 -9.60000 96.0000 20 30 998 2.50000 134 3 5 -9.22500 95.9886 TC 30 2 0
1997013S08101 1997 5 SI WA HELINDA:PANCHO 1997-01-19 21:00:00 TS -9.40959 96.0114 main 918 918 P_____P_____P_ SH191997 -9.28500 95.9850 32 -1 -9.65877 96.0642 20 31 997 134 -9.28500 95.9850 TC 32 2 157
1997013S08101 1997 5 SI WA HELINDA:PANCHO 1997-01-20 00:00:00 TS -9.52135 96.0566 main 921 921 O_____P_____O_ jtwc_sh SH191997 -9.40000 96.0000 35 0 -9.76405 96.1697 20 34 995 134 -9.40000 96.0000 TC 35 2 161
1997013S08101 1997 5 SI WA HELINDA:PANCHO 1997-01-20 01:00:00 TS -9.55936 96.0649 35 995 bom main 928 928 P_____O_____P_ SH191997 -9.43904 95.9974 36 0 -9.80000 96.2000 30 35 995 3.00000 134 3 5 -9.43904 95.9974 TC 36 2 0
1997013S08101 1997 5 SI WA HELINDA:PANCHO 1997-01-20 03:00:00 TS -9.63562 96.0827 main 928 928 P_____P_____P_ SH191997 -9.52750 95.9925 40 0 -9.85185 96.2630 30 36 993 134 -9.52750 95.9925 TC 40 3 171
1997013S08101 1997 5 SI WA HELINDA:PANCHO 1997-01-20 06:00:00 TS -9.78370 96.1029 main 944 944 O_____P_____O_ jtwc_sh SH191997 -9.70000 96.0000 45 0 -9.95109 96.3088 30 39 990 134 -9.70000 96.0000 TC 45 3 176
1997013S08101 1997 5 SI WA HELINDA:PANCHO 1997-01-20 07:00:00 TS -9.84444 96.1073 40 990 bom main 944 951 P_____O_____P_ SH191997 -9.76667 96.0110 46 0 -10.0000 96.3000 30 40 990 3.00000 134 3 5 -9.76667 96.0110 TC 46 4 0
1997013S08101 1997 5 SI WA HELINDA:PANCHO 1997-01-20 09:00:00 TS -9.98714 96.1023 main 959 959 P_____P_____P_ SH191997 -9.92000 96.0425 50 0 -10.1214 96.2219 30 46 986 134 -9.92000 96.0425 TC 50 5 176
1997013S08101 1997 5 SI WA HELINDA:PANCHO 1997-01-20 10:00:00 TS -10.0711 96.1075 50 985 bom main 967 967 P_____O_____P_ SH191997 -10.0067 96.0612 51 0 -10.2000 96.2000 30 50 985 3.50000 134 3 5 -10.0067 96.0612 TC 51 6 169
1997013S08101 1997 5 SI WA HELINDA:PANCHO 1997-01-20 12:00:00 TS -10.2649 96.1572 main 975 975 O_____P_____O_ jtwc_sh SH191997 -10.2000 96.1000 55 0 -10.3946 96.2716 30 53 981 134 -10.2000 96.1000 TC 55 6 165
1997013S08101 1997 5 SI WA HELINDA:PANCHO 1997-01-20 13:00:00 TS -10.3702 96.1865 55 980 bom main 983 983 P_____O_____P_ SH191997 -10.3052 96.1297 56 0 -10.5000 96.3000 30 55 980 4.00000 134 3 5 -10.3052 96.1297 TC 56 7 169
1997013S08101 1997 5 SI WA HELINDA:PANCHO 1997-01-20 15:00:00 TS -10.5900 96.2116 main 999 999 P_____P_____P_ SH191997 -10.5350 96.1874 60 0 -10.7000 96.2600 30 58 976 151 -10.5350 96.1874 TC 60 7 0
1997013S08101 1997 5 SI WA HELINDA:PANCHO 1997-01-20 16:00:00 TS -10.7039 96.2040 60 975 bom main 1008 1008 P_____O_____P_ SH191997 -10.6558 96.2061 61 0 -10.8000 96.2000 30 60 975 4.00000 161 3 5 -10.6558 96.2061 TC 61 7 192
1997013S08101 1997 5 SI WA HELINDA:PANCHO 1997-01-20 18:00:00 TS -10.9360 96.1343 main 1032 1032 O_____P_____O_ jtwc_sh SH191997 -10.9000 96.2000 65 1 -11.0079 96.0030 30 66 968 161 -10.9000 96.2000 TC 65 7 199
1997013S08101 1997 5 SI WA HELINDA:PANCHO 1997-01-20 19:00:00 TS -11.0497 96.0851 70 965 bom main 1040 1048 P_____O_____P_ SH191997 -11.0245 96.1776 67 1 -11.1000 95.9000 40 70 965 4.50000 161 3 5 -11.0245 96.1776 TC 67 7 206
1997013S08101 1997 5 SI WA HELINDA:PANCHO 1997-01-20 21:00:00 TS -11.2612 95.9781 main 1072 1072 P_____P_____P_ SH191997 -11.2724 96.0825 72 1 -11.2387 95.7691 40 76 958 161 -11.2724 96.0825 TC 72 7 210
1997013S08101 1997 5 SI WA HELINDA:PANCHO 1997-01-20 22:00:00 TS -11.3602 95.9053 80 955 bom main 1088 1088 P_____O_____P_ SH191997 -11.3903 96.0079 75 1 -11.3000 95.7000 40 80 955 5.00000 161 3 5 -11.3903 96.0079 TC 75 8 224
1997013S08101 1997 5 SI WA HELINDA:PANCHO 1997-01-21 00:00:00 TS -11.5444 95.7018 main 1111 1111 O_____P_____O_ jtwc_sh SH191997 -11.6000 95.8000 80 1 -11.4333 95.5054 40 89 945 161 -11.6000 95.8000 TC 80 8 230
1997013S08101 1997 5 SI WA HELINDA:PANCHO 1997-01-21 01:00:00 TS -11.6261 95.5767 95 940 bom main 1126 1126 P_____O_____P_ SH191997 -11.6891 95.6650 82 1 -11.5000 95.4000 40 95 940 5.50000 161 3 5 -11.6891 95.6650 TC 82 9 241
1997013S08101 1997 5 SI WA HELINDA:PANCHO 1997-01-21 03:00:00 TS -11.7695 95.2917 main 1165 1165 P_____P_____P_ SH191997 -11.8376 95.3376 87 2 -11.6333 95.2000 40 101 930 161 -11.8376 95.3376 TC 87 10 244
1997013S08101 1997 5 SI WA HELINDA:PANCHO 1997-01-21 04:00:00 TS -11.8326 95.1387 105 925 bom main 1180 1180 P_____O_____P_ SH191997 -11.8989 95.1581 90 2 -11.7000 95.1000 40 105 925 6.00000 161 3 5 -11.8989 95.1581 TC 90 10 249
1997013S08101 1997 5 SI WA HELINDA:PANCHO 1997-01-21 06:00:00 TS -11.9418 94.8333 main 1210 1210 O_____P_____O_ jtwc_sh SH191997 -12.0000 94.8000 95 2 -11.8254 94.9000 40 111 918 161 -12.0000 94.8000 TC 95 9 249
1997013S08101 1997 5 SI WA HELINDA:PANCHO 1997-01-21 07:00:00 TS -11.9964 94.6996 115 915 bom main 1226 1226 P_____O_____P_ SH191997 -12.0447 94.6495 97 3 -11.9000 94.8000 40 115 915 6.50000 161 3 5 -12.0447 94.6495 TC 97 8 246
1997013S08101 1997 5 SI WA HELINDA:PANCHO 1997-01-21 09:00:00 TS -12.1107 94.4409 main 1256 1256 P_____P_____P_ SH191997 -12.1148 94.3574 102 3 -12.1024 94.6079 40 115 915 161 -12.1148 94.3574 TC 102 8 247
1997013S08101 1997 5 SI WA HELINDA:PANCHO 1997-01-21 10:00:00 TS -12.1627 94.3068 115 915 bom main 1272 1272 P_____O_____P_ SH191997 -12.1440 94.2103 105 3 -12.2000 94.5000 40 115 915 6.50000 161 11 4 5 -12.1440 94.2103 TC 105 9 252
1997013S08101 1997 5 SI WA HELINDA:PANCHO 1997-01-21 12:00:00 TS -12.2462 94.0156 main 1293 1293 O_____P_____O_ jtwc_sh SH191997 -12.2000 93.9000 110 3 -12.3387 94.2466 40 115 915 161 -12.2000 93.9000 TC 110 9 254
1997013S08101 1997 5 SI WA HELINDA:PANCHO 1997-01-21 13:00:00 TS -12.2871 93.8520 115 915 bom main 1308 1313 P_____O_____P_ SH191997 -12.2307 93.7281 110 3 -12.4000 94.1000 40 115 915 6.50000 161 3 5 -12.2307 93.7281 TC 110 10 256
1997013S08101 1997 5 SI WA HELINDA:PANCHO 1997-01-21 15:00:00 TS -12.3754 93.5006 main 1338 1338 P_____P_____P_ SH191997 -12.2925 93.3649 112 3 -12.5412 93.7721 40 115 915 161 -12.2925 93.3649 TC 112 11 256
1997013S08101 1997 5 SI WA HELINDA:PANCHO 1997-01-21 16:00:00 TS -12.4169 93.3183 115 915 bom main 1348 1348 P_____O_____P_ SH191997 -12.3254 93.1775 113 4 -12.6000 93.6000 40 115 915 6.50000 161 3 5 -12.3254 93.1775 TC 113 11 258
1997013S08101 1997 5 SI WA HELINDA:PANCHO 1997-01-21 18:00:00 TS -12.4907 92.9556 main 1373 1373 O_____P_____O_ jtwc_sh SH191997 -12.4000 92.8000 115 4 -12.6721 93.2666 40 115 915 161 -12.4000 92.8000 TC 115 11 258
1997013S08101 1997 5 SI WA HELINDA:PANCHO 1997-01-21 19:00:00 TS -12.5295 92.7708 115 915 bom main 1384 1389 P_____O_____P_ SH191997 -12.4443 92.6062 115 4 -12.7000 93.1000 40 115 915 6.50000 161 3 5 -12.4443 92.6062 TC 115 11 257
1997013S08101 1997 5 SI WA HELINDA:PANCHO 1997-01-21 21:00:00 TS -12.6172 92.4023 main 1415 1415 P_____P_____P_ SH191997 -12.5425 92.2201 117 4 -12.7666 92.7667 40 115 915 161 -12.5425 92.2201 TC 117 11 256
1997013S08101 1997 5 SI WA HELINDA:PANCHO 1997-01-21 22:00:00 TS -12.6631 92.2234 115 915 bom main 1436 1436 P_____O_____P_ SH191997 -12.5946 92.0351 118 4 -12.8000 92.6000 40 115 915 6.50000 161 3 5 -12.5946 92.0351 TC 118 10 255
1997013S08101 1997 5 SI WA HELINDA:PANCHO 1997-01-22 00:00:00 TS -12.7556 91.8863 main 1463 1463 O_____P_____O_ jtwc_sh SH191997 -12.7000 91.7000 120 4 -12.8667 92.2588 40 111 918 178 -12.7000 91.7000 TC 120 10 254
1997013S08101 1997 5 SI WA HELINDA:PANCHO 1997-01-22 01:00:00 TS -12.8034 91.7368 110 920 bom main 1475 1475 P_____O_____P_ SH191997 -12.7552 91.5552 120 4 -12.9000 92.1000 40 110 920 6.50000 188 5 4 5 -12.7552 91.5552 TC 120 8 250
1997013S08101 1997 5 SI WA HELINDA:PANCHO 1997-01-22 03:00:00 TS -12.8988 91.4793 main 1496 1496 P_____P_____P_ SH191997 -12.8649 91.3050 122 4 -12.9666 91.8279 40 106 923 188 -12.8649 91.3050 TC 122 8 249
1997013S08101 1997 5 SI WA HELINDA:PANCHO 1997-01-22 04:00:00 TS -12.9438 91.3639 105 925 bom main 1502 1517 P_____O_____P_ SH191997 -12.9157 91.1958 123 4 -13.0000 91.7000 40 105 925 6.00000 188 4 4 5 -12.9157 91.1958 TC 123 6 247
1997013S08101 1997 5 SI WA HELINDA:PANCHO 1997-01-22 06:00:00 TS -13.0229 91.1848 main 1523 1523 O____OP_____O_ jtwc_sh SH191997 -13.0000 91.0000 125 4 -13.0000 91.7000 4 100 915 6.00000 6.50000 -13.0746 91.4255 40 101 928 188 -13.0000 91.0000 TC 125 5 246
1997013S08101 1997 5 SI WA HELINDA:PANCHO 1997-01-22 07:00:00 TS -13.0498 91.1147 100 930 bom main 1530 1539 P____PO_____P_ SH191997 -13.0281 90.9000 125 4 -13.0366 91.6033 4 100 915 -13.1000 91.3000 40 100 930 6.00000 188 3 4 5 -13.0281 90.9000 TC 125 5 255
1997013S08101 1997 5 SI WA HELINDA:PANCHO 1997-01-22 09:00:00 TS -13.0822 90.9574 main 1545 1545 P____PP_____P_ SH191997 -13.0650 90.7199 125 4 -13.1075 91.4076 4 100 915 -13.0975 91.0946 40 96 933 188 -13.0650 90.7199 TC 125 4 257
1997013S08101 1997 5 SI WA HELINDA:PANCHO 1997-01-22 10:00:00 TS -13.0989 90.8968 95 935 bom main 1551 1551 P____PO_____P_ SH191997 -13.0775 90.6400 125 4 -13.1408 91.3074 4 100 915 -13.1000 91.0000 40 95 935 5.50000 188 3 5 -13.0775 90.6400 TC 125 5 255
1997013S08101 1997 5 SI WA HELINDA:PANCHO 1997-01-22 12:00:00 TS -13.1423 90.7230 main 1564 1564 O____OP_____O_ jtwc_sh SH191997 -13.1000 90.5000 125 4 -13.2000 91.1000 4 100 915 5.50000 6.50000 -13.1691 90.7921 40 95 938 188 -13.1000 90.5000 TC 125 5 255
1997013S08101 1997 5 SI WA HELINDA:PANCHO 1997-01-22 13:00:00 TS -13.1646 90.6410 95 940 bom main 1579 1579 P____PO_____P_ SH191997 -13.1166 90.4360 125 4 -13.2250 90.9921 4 99 916 -13.2000 90.7000 40 95 940 5.50000 188 3 5 -13.1166 90.4360 TC 125 4 257
1997013S08101 1997 5 SI WA HELINDA:PANCHO 1997-01-22 15:00:00 TS -13.1926 90.4984 main 1586 1586 P____PP_____P_ SH191997 -13.1500 90.3275 125 4 -13.2650 90.7775 4 97 920 -13.2054 90.5612 40 91 943 188 -13.1500 90.3275 TC 125 4 259
1997013S08101 1997 5 SI WA HELINDA:PANCHO 1997-01-22 16:00:00 TS -13.2033 90.4347 90 945 bom main 1592 1592 P____PO_____P_ SH191997 -13.1666 90.2812 125 4 -13.2800 90.6763 4 96 921 -13.2000 90.5000 40 90 945 5.50000 188 3 5 -13.1666 90.2812 TC 125 4 260
1997013S08101 1997 5 SI WA HELINDA:PANCHO 1997-01-22 18:00:00 TS -13.2230 90.3167 main 1599 1599 O____OP_____O_ jtwc_sh SH191997 -13.2000 90.2000 125 4 -13.3000 90.5000 4 95 925 5.50000 6.00000 -13.1921 90.3667 40 90 945 188 -13.2000 90.2000 TC 125 3 260
1997013S08101 1997 5 SI WA HELINDA:PANCHO 1997-01-22 19:00:00 TS -13.2341 90.2630 90 945 bom main 1599 1599 P____PO_____P_ SH191997 -13.2167 90.1610 124 4 -13.3031 90.4302 4 93 926 -13.2000 90.3000 40 90 945 5.50000 188 3 5 -13.2167 90.1610 TC 124 3 253
1997013S08101 1997 5 SI WA HELINDA:PANCHO 1997-01-22 21:00:00 TS -13.2673 90.1679 main 1614 1614 P____PP_____P_ SH191997 -13.2500 90.0925 122 4 -13.2999 90.3200 4 90 930 -13.2691 90.1667 40 90 945 188 -13.2500 90.0925 TC 122 3 251
1997013S08101 1997 5 SI WA HELINDA:PANCHO 1997-01-22 22:00:00 TS -13.2827 90.1246 90 945 bom main 1621 1621 P____PO_____P_ SH191997 -13.2667 90.0612 121 4 -13.2975 90.2758 4 88 931 -13.3000 90.1000 40 90 945 5.50000 188 3 5 -13.2667 90.0612 TC 121 3 256
1997013S08101 1997 5 SI WA HELINDA:PANCHO 1997-01-23 00:00:00 TS -13.2994 90.0417 main 1627 1627 O____OP_____O_ jtwc_sh SH191997 -13.3000 90.0000 120 4 -13.3000 90.2000 4 85 935 5.00000 5.50000 -13.2975 89.9667 40 93 941 188 -13.3000 90.0000 TC 120 3 257
1997013S08101 1997 5 SI MM HELINDA:PANCHO 1997-01-23 01:00:00 TS -13.3117 89.9966 main 1627 1627 P____PO_____P_ SH191997 -13.3167 89.9640 120 4 -13.3136 90.1583 4 84 936 -13.3000 89.9000 40 95 940 5.50000 188 3 5 -13.3167 89.9640 TC 120 3 247
1997013S08101 1997 5 SI MM HELINDA:PANCHO 1997-01-23 03:00:00 TS -13.3548 89.9052 main 1643 1643 P____PP_____P_ SH191997 -13.3500 89.8925 120 4 -13.3500 90.0850 4 82 940 -13.3691 89.7509 40 95 936 188 -13.3500 89.8925 TC 120 3 243
1997013S08101 1997 5 SI MM HELINDA:PANCHO 1997-01-23 04:00:00 TS -13.3756 89.8677 main 1643 1643 P____PO_____P_ SH191997 -13.3667 89.8588 120 4 -13.3691 90.0534 4 81 941 -13.4000 89.7000 40 95 935 5.50000 188 9 4 5 -13.3667 89.8588 TC 120 2 240
1997013S08101 1997 5 SI MM HELINDA:PANCHO 1997-01-23 06:00:00 TS -13.3994 89.8223 80 945 reunion main 1649 1649 O____OP_____O_ jtwc_sh SH191997 -13.4000 89.8000 120 4 -13.4000 90.0000 4 80 945 5.00000 5.50000 -13.3975 89.6891 40 95 935 188 -13.4000 89.8000 TC 120 1 241
1997013S08101 1997 5 SI MM HELINDA:PANCHO 1997-01-23 07:00:00 TS -13.4084 89.8063 main 1649 1649 P____PO_____P_ SH191997 -13.4167 89.7750 120 4 -13.4005 89.9750 4 79 945 -13.4000 89.7000 40 95 935 5.50000 188 9 4 5 -13.4167 89.7750 TC 120 1 226
1997013S08101 1997 5 SI MM HELINDA:PANCHO 1997-01-23 09:00:00 TS -13.4384 89.7743 main 1649 1649 P____PP_____P_ SH191997 -13.4500 89.7350 120 4 -13.3925 89.9350 4 77 947 -13.4612 89.6921 40 95 938 188 -13.4500 89.7350 TC 120 1 212
1997013S08101 1997 5 SI MM HELINDA:PANCHO 1997-01-23 10:00:00 TS -13.4557 89.7650 main 1658 1658 P____PO_____P_ SH191997 -13.4667 89.7200 120 4 -13.3896 89.9200 4 76 948 -13.5000 89.7000 40 95 940 5.50000 188 4 5 -13.4667 89.7200 TC 120 1 198
1997013S08101 1997 5 SI MM HELINDA:PANCHO 1997-01-23 12:00:00 TS -13.4917 89.7653 75 950 reunion main 1658 1658 O____OP_____O_ jtwc_sh SH191997 -13.5000 89.7000 120 4 -13.4000 89.9000 4 75 950 4.50000 5.00000 -13.5667 89.7612 40 91 943 188 -13.5000 89.7000 TC 120 1 0
1997013S08101 1997 5 SI MM HELINDA:PANCHO 1997-01-23 13:00:00 TS -13.5118 89.7688 main 1658 1658 P____PO_____P_ SH191997 -13.5140 89.6917 118 4 -13.4193 89.8917 4 74 950 -13.6000 89.8000 40 90 945 5.50000 188 4 5 -13.5140 89.6917 TC 118 1 158
1997013S08101 1997 5 SI MM HELINDA:PANCHO 1997-01-23 15:00:00 TS -13.5553 89.7804 main 1667 1667 P____PP_____P_ SH191997 -13.5425 89.6850 115 4 -13.4775 89.8850 4 72 952 -13.6588 89.8667 40 86 948 188 -13.5425 89.6850 TC 115 1 0
1997013S08101 1997 5 SI MM HELINDA:PANCHO 1997-01-23 16:00:00 TS -13.5830 89.7900 main 1667 1667 P____PO_____P_ SH191997 -13.5588 89.6867 113 4 -13.5146 89.8867 4 71 953 -13.7000 89.9000 40 85 950 5.00000 188 4 5 -13.5588 89.6867 TC 113 2 158
1997013S08101 1997 5 SI MM HELINDA:PANCHO 1997-01-23 18:00:00 TS -13.6590 89.8167 70 955 reunion main 1676 1676 O____OP_____O_ jtwc_sh SH191997 -13.6000 89.7000 110 3 -13.6000 89.9000 4 70 955 4.50000 5.00000 -13.8358 89.9667 40 81 953 188 -13.6000 89.7000 TC 110 3 162
1997013S08101 1997 5 SI MM HELINDA:PANCHO 1997-01-23 19:00:00 TS -13.7019 89.8313 80 955 bom main 1676 1669 P____PO_____P_ SH191997 -13.6302 89.7057 108 3 -13.6469 89.9136 4 69 955 -13.9000 90.0000 40 80 955 5.00000 188 4 5 -13.6302 89.7057 TC 108 3 158
1997013S08101 1997 5 SI MM HELINDA:PANCHO 1997-01-23 21:00:00 TS -13.7805 89.8679 main 1678 1678 P____PP_____P_ SH191997 -13.7000 89.7275 105 3 -13.7500 89.9500 4 67 957 -13.9721 90.0667 40 76 958 188 -13.7000 89.7275 TC 105 3 153
1997013S08101 1997 5 SI MM HELINDA:PANCHO 1997-01-23 22:00:00 TS -13.8185 89.8900 75 960 bom main 1678 1678 P____PO_____P_ SH191997 -13.7358 89.7454 103 3 -13.8025 89.9691 4 66 958 -14.0000 90.1000 40 75 960 4.50000 188 4 5 -13.7358 89.7454 TC 103 3 150
1997013S08101 1997 5 SI MM HELINDA:PANCHO 1997-01-24 00:00:00 TS -13.8936 89.9436 main 1687 1681 O____OP_____O_ jtwc_sh SH191997 -13.8000 89.8000 100 3 -13.9000 90.0000 4 65 960 4.50000 4.50000 -14.0746 90.1746 40 68 966 188 -13.8000 89.8000 TC 100 3 143
1997013S08101 1997 5 SI MM HELINDA:PANCHO 1997-01-24 01:00:00 TS -13.9229 89.9714 65 970 bom main 1681 1681 P____PO_____P_ SH191997 -13.8250 89.8412 99 3 -13.9417 90.0031 4 65 960 -14.1000 90.2000 40 65 970 4.50000 188 3 5 -13.8250 89.8412 TC 99 2 131
1997013S08101 1997 5 SI WA HELINDA:PANCHO 1997-01-24 03:00:00 TS -13.9628 90.0228 main 1690 1690 P____PP_____P_ SH191997 -13.8650 89.9425 97 3 -14.0150 90.0000 4 65 960 -14.1061 90.2061 40 58 976 188 -13.8650 89.9425 TC 97 2 124
1997013S08101 1997 5 SI WA HELINDA:PANCHO 1997-01-24 04:00:00 TS -13.9767 90.0479 55 980 bom main 1690 1684 P____PO_____P_ SH191997 -13.8800 89.9970 96 3 -14.0467 89.9975 4 65 960 -14.1000 90.2000 30 55 980 4.00000 188 3 5 -13.8800 89.9970 TC 96 2 117
1997013S08101 1997 5 SI WA HELINDA:PANCHO 1997-01-24 06:00:00 TS -13.9988 90.0988 main 1684 1677 O____OP_____O_ jtwc_sh SH191997 -13.9000 90.1000 95 2 -14.1000 90.0000 4 65 960 4.50000 4.50000 -14.0953 90.1953 30 53 981 188 -13.9000 90.1000 TC 95 1 108
1997013S08101 1997 5 SI WA HELINDA:PANCHO 1997-01-24 09:00:00 TS -14.0130 90.1630 main 1677 1677 P____PP_____P_ SH191997 -13.9000 90.2075 90 2 -14.1575 90.0425 4 62 965 -14.0945 90.1945 30 50 984 188 -13.9000 90.2075 TC 90 1 103
1997013S08101 1997 5 SI WA HELINDA:PANCHO 1997-01-24 10:00:00 TS -14.0168 90.1847 50 985 bom main 1677 1677 P____PO_____P_ SH191997 -13.8975 90.2388 88 2 -14.1721 90.0612 4 61 966 -14.1000 90.2000 30 50 985 3.50000 188 3 5 -13.8975 90.2388 TC 88 1 106
1997013S08101 1997 5 SI WA HELINDA:PANCHO 1997-01-24 12:00:00 TS -14.0314 90.2314 main 1677 1671 O____OP_____O_ jtwc_sh SH191997 -13.9000 90.3000 85 2 -14.2000 90.1000 3 60 970 4.50000 4.50000 -14.1254 90.2254 30 46 986 188 -13.9000 90.3000 TC 85 2 118
1997013S08101 1997 5 SI WA HELINDA:PANCHO 1997-01-24 15:00:00 TS -14.0789 90.3077 main 1680 1680 P____PP_____P_ SH191997 -13.9425 90.4000 77 1 -14.2500 90.1500 3 60 970 -14.1807 90.2807 30 41 989 188 -13.9425 90.4000 TC 77 2 124
1997013S08101 1997 5 SI WA HELINDA:PANCHO 1997-01-24 16:00:00 TS -14.0973 90.3333 40 990 bom main 1680 1674 P____PO_____P_ SH191997 -13.9612 90.4333 74 1 -14.2667 90.1667 3 60 970 -14.2000 90.3000 30 40 990 3.00000 188 3 5 -13.9612 90.4333 TC 74 2 128
1997013S08101 1997 5 SI WA HELINDA:PANCHO 1997-01-24 18:00:00 TS -14.1333 90.3833 main 1674 1674 O____OP_____O_ jtwc_sh SH191997 -14.0000 90.5000 70 1 -14.3000 90.2000 3 60 970 4.00000 4.50000 -14.2333 90.3333 30 40 990 188 -14.0000 90.5000 TC 70 2 125
1997013S08101 1997 5 SI WA HELINDA:PANCHO 1997-01-24 21:00:00 TS -14.1852 90.4621 main 1677 1677 P____PP_____P_ SH191997 -14.0500 90.6075 67 1 -14.3575 90.2500 3 60 970 -14.2833 90.3833 30 40 990 188 -14.0500 90.6075 TC 67 2 125
1997013S08101 1997 5 SI WA HELINDA:PANCHO 1997-01-24 22:00:00 TS -14.2020 90.4873 40 990 bom main 1677 1677 P____PO_____P_ SH191997 -14.0667 90.6412 66 1 -14.3746 90.2667 3 60 970 -14.3000 90.4000 30 40 990 3.00000 188 3 5 -14.0667 90.6412 TC 66 2 127
1997013S08101 1997 5 SI WA HELINDA:PANCHO 1997-01-25 00:00:00 TS -14.2333 90.5333 main 1677 1671 O____OP_____O_ jtwc_sh SH191997 -14.1000 90.7000 65 1 -14.4000 90.3000 3 60 970 4.00000 4.50000 -14.3333 90.4333 30 40 990 188 -14.1000 90.7000 TC 65 1 125
1997013S08101 1997 5 SI WA HELINDA:PANCHO 1997-01-25 03:00:00 TS -14.2708 90.5909 main 1680 1680 P____PP_____P_ SH191997 -14.1500 90.7650 65 1 -14.4000 90.3500 3 57 972 -14.3833 90.4833 30 40 990 188 -14.1500 90.7650 TC 65 1 124
1997013S08101 1997 5 SI WA HELINDA:PANCHO 1997-01-25 04:00:00 TS -14.2827 90.6067 40 990 bom main 1680 1680 P____PO_____P_ SH191997 -14.1667 90.7800 65 1 -14.3975 90.3667 3 56 973 -14.4000 90.5000 30 40 990 3.00000 188 3 5 -14.1667 90.7800 TC 65 1 132
1997013S08101 1997 5 SI WA HELINDA:PANCHO 1997-01-25 06:00:00 TS -14.3083 90.6347 main 1680 1674 O____OP_____O_ jtwc_sh SH191997 -14.2000 90.8000 65 1 -14.4000 90.4000 3 55 975 3.50000 4.00000 -14.4333 90.5388 30 40 990 196 -14.2000 90.8000 TC 65 1 141
1997013S08101 1997 5 SI WA HELINDA:PANCHO 1997-01-25 09:00:00 TS -14.3583 90.6673 main 1684 1684 P____PP_____P_ SH191997 -14.2500 90.8150 67 1 -14.4500 90.4500 3 55 975 -14.4833 90.5890 30 40 990 210 -14.2500 90.8150 TC 67 1 148
1997013S08101 1997 5 SI WA HELINDA:PANCHO 1997-01-25 10:00:00 TS -14.3756 90.6733 40 990 bom main 1684 1684 P____PO_____P_ SH191997 -14.2667 90.8133 68 1 -14.4691 90.4667 3 55 975 -14.5000 90.6000 30 40 990 3.00000 215 3 5 -14.2667 90.8133 TC 68 1 153
1997013S08101 1997 5 SI WA HELINDA:PANCHO 1997-01-25 12:00:00 TS -14.4083 90.6756 main 1684 1684 O____OP_____O_ jtwc_sh SH191997 -14.3000 90.8000 70 1 -14.5000 90.5000 3 55 975 3.50000 4.00000 -14.5333 90.6025 30 40 990 215 -14.3000 90.8000 TC 70 1 197
1997013S08101 1997 5 SI WA HELINDA:PANCHO 1997-01-25 15:00:00 TS -14.4515 90.6655 main 1693 1693 P____PP_____P_ SH191997 -14.3575 90.7575 72 1 -14.5075 90.5500 3 55 975 -14.5833 90.5969 30 40 990 215 -14.3575 90.7575 TC 72 1 189
1997013S08101 1997 5 SI WA HELINDA:PANCHO 1997-01-25 16:00:00 TS -14.4636 90.6611 40 990 bom main 1693 1693 P____PO_____P_ SH191997 -14.3746 90.7388 73 1 -14.5054 90.5667 3 55 975 -14.6000 90.6000 30 40 990 3.00000 215 3 5 -14.3746 90.7388 TC 73 1 212
1997013S08101 1997 5 SI WA HELINDA:PANCHO 1997-01-25 18:00:00 TS -14.4852 90.6583 main 1693 1693 O____OP_____O_ jtwc_sh SH191997 -14.4000 90.7000 75 1 -14.5000 90.6000 3 55 975 4.00000 4.00000 -14.6407 90.6333 30 40 990 215 -14.4000 90.7000 TC 75 0 163
1997013S08101 1997 5 SI WA HELINDA:PANCHO 1997-01-25 21:00:00 TS -14.5015 90.6635 main 1693 1693 P____PP_____P_ SH191997 -14.4075 90.6575 75 1 -14.5000 90.6500 3 57 972 -14.6911 90.6890 30 40 990 215 -14.4075 90.6575 TC 75 0 0
1997013S08101 1997 5 SI WA HELINDA:PANCHO 1997-01-25 22:00:00 TS -14.5027 90.6623 40 990 bom main 1693 1693 P____PO_____P_ SH191997 -14.4054 90.6412 75 1 -14.5000 90.6667 3 58 971 -14.7000 90.7000 30 40 990 3.00000 215 3 5 -14.4054 90.6412 TC 75 0 0
1997013S08101 1997 5 SI WA HELINDA:PANCHO 1997-01-26 00:00:00 TS -14.5025 90.6567 main 1693 1693 O____OP_____O_ jtwc_sh SH191997 -14.4000 90.6000 75 1 -14.5000 90.7000 3 60 970 4.50000 4.50000 -14.7101 90.7269 30 40 990 215 -14.4000 90.6000 TC 75 0 0
1997013S08101 1997 5 SI WA HELINDA:PANCHO 1997-01-26 01:00:00 TS -14.5039 90.6397 40 990 bom main 1699 1699 P____PO_____P_ SH191997 -14.4053 90.5698 75 1 -14.5052 90.7193 3 60 970 -14.7000 90.7000 30 40 990 3.00000 215 3 5 -14.4053 90.5698 TC 75 2 273
1997013S08101 1997 5 SI WA HELINDA:PANCHO 1997-01-26 03:00:00 TS -14.4979 90.5586 main 1699 1699 P____PP_____P_ SH191997 -14.4150 90.5000 75 1 -14.5150 90.7575 3 60 970 -14.6467 90.4768 30 40 990 215 -14.4150 90.5000 TC 75 2 279
1997013S08101 1997 5 SI WA HELINDA:PANCHO 1997-01-26 04:00:00 TS -14.4869 90.5258 40 990 bom main 1705 1696 P____PO_____P_ SH191997 -14.4158 90.4642 75 1 -14.5158 90.7746 3 60 970 -14.6000 90.4000 30 40 990 3.00000 215 3 5 -14.4158 90.4642 TC 75 1 349
1997013S08101 1997 5 SI WA HELINDA:PANCHO 1997-01-26 06:00:00 TS -14.4430 90.5305 main 1696 1696 O____OP_____O_ jtwc_sh SH191997 -14.4000 90.4000 75 1 -14.5000 90.8000 3 60 970 4.00000 4.50000 -14.4721 90.5220 30 40 990 215 -14.4000 90.4000 TC 75 2 0
1997013S08101 1997 5 SI WA HELINDA:PANCHO 1997-01-26 07:00:00 TS -14.4132 90.5383 40 990 bom main 1696 1686 P____PO_____P_ SH191997 -14.3833 90.3750 74 1 -14.4860 90.8031 3 60 970 -14.4000 90.6000 30 40 990 3.00000 215 3 5 -14.3833 90.3750 TC 74 2 346
1997013S08101 1997 5 SI WA HELINDA:PANCHO 1997-01-26 09:00:00 TS -14.3417 90.5205 main 1686 1686 P____PP_____P_ SH191997 -14.3300 90.3350 72 1 -14.4375 90.8000 3 60 970 -14.2692 90.6122 30 36 993 215 -14.3300 90.3350 TC 72 2 348
1997013S08101 1997 5 SI WA HELINDA:PANCHO 1997-01-26 10:00:00 TS -14.2970 90.5094 35 995 bom main 1686 1677 P____PO_____P_ SH191997 -14.2933 90.3200 71 1 -14.4012 90.7975 3 60 970 -14.2000 90.6000 30 35 995 3.00000 215 3 5 -14.2933 90.3200 TC 71 3 352
1997013S08101 1997 5 SI WA HELINDA:PANCHO 1997-01-26 12:00:00 TS -14.1848 90.5000 main 1677 1659 O____OP_____O_ jtwc_sh SH191997 -14.2000 90.3000 70 1 -14.3000 90.8000 3 60 970 3.50000 4.50000 -14.0394 90.6000 30 33 995 206 -14.2000 90.3000 TC 70 4 355
1997013S08101 1997 5 SI WA HELINDA:PANCHO 1997-01-26 15:00:00 TS -13.9766 90.4994 main 1659 1649 P____PP_____P_ SH191997 -14.0225 90.2775 67 1 -14.0800 90.8425 3 57 972 -13.7814 90.6000 30 30 997 192 -14.0225 90.2775 TC 67 4 0
1997013S08101 1997 5 SI WA HELINDA:PANCHO 1997-01-26 16:00:00 TS -13.8988 90.5047 30 998 bom main 1649 1640 P____PO_____P_ SH191997 -13.9521 90.2787 66 1 -13.9909 90.8613 3 56 973 -13.7000 90.6000 20 30 998 2.50000 188 3 5 -13.9521 90.2787 TC 66 5 4
1997013S08101 1997 5 SI WA HELINDA:PANCHO 1997-01-26 18:00:00 TS -13.7397 90.5250 main 1631 1607 O____OP_____O_ jtwc_sh SH191997 -13.8000 90.3000 65 1 -13.8000 90.9000 3 55 975 3.50000 4.00000 -13.5588 90.6000 20 30 998 188 -13.8000 90.3000 TC 65 5 9
1997013S08101 1997 5 SI WA HELINDA:PANCHO 1997-01-26 21:00:00 TS -13.4948 90.5781 main 1607 1597 P____PP_____P_ SH191997 -13.5575 90.3775 60 0 -13.5000 90.9575 3 50 977 -13.3640 90.6000 20 30 998 188 -13.5575 90.3775 TC 60 5 11
1997013S08101 1997 5 SI WA HELINDA:PANCHO 1997-01-26 22:00:00 TS -13.4104 90.6009 30 998 bom main 1597 1588 P____PO_____P_ SH191997 -13.4721 90.4146 58 0 -13.3975 90.9746 3 48 978 -13.3000 90.6000 20 30 998 2.50000 188 3 5 -13.4721 90.4146 TC 58 5 16
1997013S08101 1997 5 SI WA HELINDA:PANCHO 1997-01-27 00:00:00 TS -13.2454 90.6500 main 1573 1555 O____OP_____O_ jtwc_sh SH191997 -13.3000 90.5000 55 0 -13.2000 91.0000 3 45 980 3.00000 3.50000 -13.1815 90.6000 20 30 998 188 -13.3000 90.5000 TC 55 5 18
1997013S08101 1997 5 SI WA HELINDA:PANCHO 1997-01-27 03:00:00 TS -13.0118 90.7269 main 1555 1539 P____PP_____P_ SH191997 -13.0575 90.6500 55 0 -12.9500 91.0075 3 43 982 -12.9822 90.6000 20 30 998 188 -13.0575 90.6500 TC 55 5 17
1997013S08101 1997 5 SI WA HELINDA:PANCHO 1997-01-27 04:00:00 TS -12.9296 90.7526 30 998 bom main 1539 1530 P____PO_____P_ SH191997 -12.9746 90.7025 55 0 -12.8691 91.0054 3 42 983 -12.9000 90.6000 20 30 998 2.50000 188 3 5 -12.9746 90.7025 TC 55 5 14
1997013S08101 1997 5 SI WA HELINDA:PANCHO 1997-01-27 06:00:00 TS -12.7572 90.7937 main 1530 1521 O____OP_____O_ jtwc_sh SH191997 -12.8000 90.8000 55 0 -12.7000 91.0000 3 42 985 3.00000 3.50000 -12.7286 90.5748 20 30 998 188 -12.8000 90.8000 TC 55 6 14
1997013S08101 1997 5 SI WA HELINDA:PANCHO 1997-01-27 07:00:00 TS -12.6549 90.8202 30 998 bom main 1521 1488 P____PO_____P_ SH191997 -12.7057 90.8390 54 0 -12.6083 91.0026 3 40 985 -12.6000 90.6000 20 30 998 2.50000 188 3 5 -12.7057 90.8390 TC 54 7 17
1997013S08101 1997 5 SI WA HELINDA:PANCHO 1997-01-27 09:00:00 TS -12.4095 90.9036 main 1488 1479 P____PP_____P_ SH191997 -12.5075 90.9075 52 0 -12.4150 91.0075 3 38 987 -12.2081 90.7921 20 30 998 188 -12.5075 90.9075 TC 52 8 18
1997013S08101 1997 5 SI WA HELINDA:PANCHO 1997-01-27 10:00:00 TS -12.2810 90.9464 30 998 bom main 1479 1455 P____PO_____P_ SH191997 -12.4054 90.9387 51 0 -12.3133 91.0079 3 37 988 -12.0000 90.9000 20 30 998 2.50000 188 3 5 -12.4054 90.9387 TC 51 8 15
1997013S08101 1997 5 SI WA HELINDA:PANCHO 1997-01-27 12:00:00 TS -12.0475 91.0024 main 1446 1413 O____OP_____O_ jtwc_sh SH191997 -12.2000 91.0000 50 0 -12.1000 91.0000 3 35 990 3.00000 3.00000 -11.6902 91.0096 20 31 997 188 -12.2000 91.0000 TC 50 7 11
1997013S08101 1997 5 SI WA HELINDA:PANCHO 1997-01-27 15:00:00 TS -11.7248 91.0558 main 1413 1404 P____PP_____P_ SH191997 -11.9150 91.1075 50 0 -11.7500 90.9274 3 35 990 -11.3190 91.0809 20 34 995 188 -11.9150 91.1075 TC 50 7 9
1997013S08101 1997 5 SI WA HELINDA:PANCHO 1997-01-27 16:00:00 TS -11.6156 91.0724 35 995 bom main 1404 1386 P____PO_____P_ SH191997 -11.8158 91.1412 50 0 -11.6309 90.9071 3 35 990 -11.2000 91.1000 30 35 995 3.00000 188 3 5 -11.8158 91.1412 TC 50 7 9
1997013S08101 1997 5 SI WA HELINDA:PANCHO 1997-01-27 18:00:00 TS -11.3779 91.1167 main 1386 1345 O____OP_____O_ jtwc_sh SH191997 -11.6000 91.2000 50 0 -11.4000 90.9000 3 35 990 3.00000 3.00000 -10.9116 91.1667 30 36 993 188 -11.6000 91.2000 TC 50 7 11
1997013S08101 1997 5 SI WA HELINDA:PANCHO 1997-01-27 21:00:00 TS -11.0082 91.1891 main 1345 1336 P____PP_____P_ SH191997 -11.2150 91.2424 47 0 -11.0925 91.0050 3 35 990 -10.5105 91.2667 30 39 990 188 -11.2150 91.2424 TC 47 8 11
1997013S08101 1997 5 SI WA HELINDA:PANCHO 1997-01-27 22:00:00 TS -10.8874 91.2187 40 990 bom main 1336 1312 P____PO_____P_ SH191997 -11.0775 91.2562 46 0 -10.9946 91.0625 3 35 990 -10.4000 91.3000 30 40 990 3.00000 188 3 5 -11.0775 91.2562 TC 46 7 16
1997013S08101 1997 5 SI WA HELINDA:PANCHO 1997-01-28 00:00:00 TS -10.6533 91.2930 main 1312 1271 O____OP_____O_ jtwc_sh SH191997 -10.8000 91.3000 45 0 -10.8000 91.2000 3 35 990 3.00000 3.00000 -10.2133 91.3721 30 41 988 188 -10.8000 91.3000 TC 45 7 20
1997013S08101 1997 5 SI WA HELINDA:PANCHO 1997-01-28 03:00:00 TS -10.3071 91.4331 main 1271 1255 P____PP_____P_ SH191997 -10.3625 91.4125 45 0 -10.4700 91.4351 3 35 990 -10.0333 91.4724 30 44 985 188 -10.3625 91.4125 TC 45 7 23
1997013S08101 1997 5 SI WA HELINDA:PANCHO 1997-01-28 04:00:00 TS -10.2057 91.4884 45 985 bom main 1255 1240 P____PO_____P_ SH191997 -10.2271 91.4655 45 0 -10.3684 91.5225 3 35 990 -10.0000 91.5000 30 45 985 3.00000 188 3 5 -10.2271 91.4655 TC 45 6 33
1997013S08101 1997 5 SI WA HELINDA:PANCHO 1997-01-28 06:00:00 TS -10.0407 91.6076 main 1231 1208 O____OP_____O_ jtwc_sh SH191997 -10.0000 91.6000 45 0 -10.2000 91.7000 3 35 990 3.00000 3.00000 -9.96295 91.5304 30 45 985 188 -10.0000 91.6000 TC 45 5 46
1997013S08101 1997 5 SI WA HELINDA:PANCHO 1997-01-28 09:00:00 TS -9.89719 91.8143 main 1208 1201 P____PP_____P_ SH191997 -9.77500 91.8700 45 0 -10.0550 91.9424 3 35 990 -9.98379 91.5745 30 45 985 188 -9.77500 91.8700 TC 45 5 60
1997013S08101 1997 5 SI WA HELINDA:PANCHO 1997-01-28 10:00:00 TS -9.87394 91.8943 45 985 bom main 1201 1187 P____PO_____P_ SH191997 -9.73333 91.9758 45 0 -10.0291 92.0254 3 35 990 -10.0000 91.6000 30 45 985 3.00000 188 3 5 -9.73333 91.9758 TC 45 5 80
1997013S08101 1997 5 SI WA HELINDA:PANCHO 1997-01-28 12:00:00 TS -9.85500 92.0683 main 1187 1166 O____OP_____O_ jtwc_sh SH191997 -9.70000 92.2000 45 0 -10.0000 92.2000 3 35 990 3.00000 3.00000 -10.0200 91.6733 30 48 983 188 -9.70000 92.2000 TC 45 6 90
1997013S08101 1997 5 SI WA HELINDA:PANCHO 1997-01-28 15:00:00 TS -9.87566 92.3733 main 1166 1159 P____PP_____P_ SH191997 -9.74006 92.5724 45 0 -9.94754 92.5150 3 35 990 -10.0750 91.8334 30 53 980 188 -9.74006 92.5724 TC 45 6 97
1997013S08101 1997 5 SI WA HELINDA:PANCHO 1997-01-28 16:00:00 TS -9.90368 92.4760 55 980 bom main 1159 1153 P____PO_____P_ SH191997 -9.78252 92.6928 45 0 -9.94967 92.6183 3 35 990 -10.1000 91.9000 30 55 980 4.00000 188 3 5 -9.78252 92.6928 TC 45 6 111
1997013S08101 1997 5 SI WA HELINDA:PANCHO 1997-01-28 18:00:00 TS -9.98241 92.6611 main 1155 1149 O____OP_____O_ jtwc_sh SH191997 -9.90000 92.9000 45 0 -10.0000 92.8000 3 35 990 3.00000 3.00000 -10.1296 92.0445 30 55 980 188 -9.90000 92.9000 TC 45 6 124
1997013S08101 1997 5 SI WA HELINDA:PANCHO 1997-01-28 21:00:00 TS -10.1696 92.8724 main 1160 1160 P____PP_____P_ SH191997 -10.1199 93.0950 45 0 -10.2050 92.9949 3 35 990 -10.2334 92.3047 30 55 980 188 -10.1199 93.0950 TC 45 6 136
1997013S08101 1997 5 SI WA HELINDA:PANCHO 1997-01-28 22:00:00 TS -10.2541 92.9288 55 980 bom main 1169 1163 P____PO_____P_ SH191997 -10.2091 93.1375 45 0 -10.2983 93.0399 3 35 990 -10.3000 92.4000 30 55 980 4.00000 188 3 5 -10.2091 93.1375 TC 45 6 151
1997013S08101 1997 5 SI WA HELINDA:PANCHO 1997-01-29 00:00:00 TS -10.4461 93.0267 main 1172 1172 O____OP_____O_ jtwc_sh SH191997 -10.4000 93.2000 45 0 -10.5000 93.1000 3 35 990 3.00000 3.00000 -10.4845 92.6066 30 58 976 188 -10.4000 93.2000 TC 45 6 155
1997013S08101 1997 5 SI WA HELINDA:PANCHO 1997-01-29 01:00:00 TS -10.5424 93.0703 60 975 bom main 1176 1185 P____PO_____P_ SH191997 -10.4890 93.2307 45 0 -10.5917 93.1198 3 35 990 -10.6000 92.7000 30 60 975 4.00000 188 3 5 -10.4890 93.2307 TC 45 6 162
1997013S08101 1997 5 SI WA HELINDA:PANCHO 1997-01-29 03:00:00 TS -10.7503 93.1285 main 1204 1204 P____PP_____P_ SH191997 -10.6775 93.2725 45 0 -10.7850 93.1300 3 35 990 -10.8612 92.8388 30 60 975 188 -10.6775 93.2725 TC 45 7 166
1997013S08101 1997 5 SI WA HELINDA:PANCHO 1997-01-29 04:00:00 TS -10.8610 93.1488 60 975 bom main 1213 1208 P____PO_____P_ SH191997 -10.7788 93.2855 45 0 -10.8867 93.1242 3 35 990 -11.0000 92.9000 30 60 975 4.00000 188 3 5 -10.7788 93.2855 TC 45 7 172
1997013S08101 1997 5 SI WA HELINDA:PANCHO 1997-01-29 06:00:00 TS -11.0917 93.1873 main 1227 1227 O____OP_____O_ jtwc_sh SH191997 -11.0000 93.3000 45 0 -11.1000 93.1000 3 35 990 3.00000 3.00000 -11.2667 93.0491 30 60 975 188 -11.0000 93.3000 TC 45 7 172
1997013S08101 1997 5 SI WA HELINDA:PANCHO 1997-01-29 07:00:00 TS -11.2091 93.2034 60 975 bom main 1236 1236 P____PO_____P_ SH191997 -11.1140 93.3109 45 0 -11.2083 93.0917 3 35 990 -11.4000 93.1000 30 60 975 4.00000 188 3 5 -11.1140 93.3109 TC 45 7 0
1997013S08101 1997 5 SI WA HELINDA:PANCHO 1997-01-29 09:00:00 TS -11.4567 93.2068 main 1265 1265 P____PP_____P_ SH191997 -11.3625 93.3224 45 0 -11.4350 93.0650 3 35 990 -11.6667 93.1174 30 60 975 188 -11.3625 93.3224 TC 45 8 184
1997013S08101 1997 5 SI WA HELINDA:PANCHO 1997-01-29 10:00:00 TS -11.5877 93.1973 60 975 bom main 1275 1275 P____PO_____P_ SH191997 -11.4988 93.3212 45 0 -11.5533 93.0466 3 35 990 -11.8000 93.1000 30 60 975 4.00000 188 3 5 -11.4988 93.3212 TC 45 8 185
1997013S08101 1997 5 SI WA HELINDA:PANCHO 1997-01-29 12:00:00 TS -11.8678 93.1649 main 1304 1304 O____OP_____O_ jtwc_sh SH191997 -11.8000 93.3000 45 0 -11.8000 93.0000 3 35 990 3.00000 3.00000 -12.0714 93.0596 30 60 975 188 -11.8000 93.3000 TC 45 9 188
1997013S08101 1997 5 SI WA HELINDA:PANCHO 1997-01-29 15:00:00 TS -12.3468 93.0858 main 1348 1348 P____PP_____P_ SH191997 -12.3575 93.2375 45 0 -12.2000 92.9225 3 35 990 -12.4721 92.9460 30 60 975 188 -12.3575 93.2375 TC 45 10 190
1997013S08101 1997 5 SI WA HELINDA:PANCHO 1997-01-29 16:00:00 TS -12.5083 93.0476 60 975 bom main 1373 1373 P____PO_____P_ SH191997 -12.5486 93.2012 45 0 -12.3358 92.8879 3 35 990 -12.6000 92.9000 30 60 975 4.00000 188 3 5 -12.5486 93.2012 TC 45 10 196
1997013S08101 1997 5 SI WA HELINDA:PANCHO 1997-01-29 18:00:00 TS -12.8083 92.9537 main 1403 1403 O____OP_____O_ jtwc_sh SH191997 -12.9000 93.1000 45 0 -12.6000 92.8000 3 35 990 3.00000 3.00000 -12.8333 92.8148 30 60 975 188 -12.9000 93.1000 TC 45 9 202
1997013S08101 1997 5 SI WA HELINDA:PANCHO 1997-01-29 21:00:00 TS -13.1869 92.7662 main 1453 1453 P____PP_____P_ SH191997 -13.3025 92.8875 45 0 -12.9650 92.6300 3 35 990 -13.1776 92.6599 30 60 975 188 -13.3025 92.8875 TC 45 8 207
1997013S08101 1997 5 SI WA HELINDA:PANCHO 1997-01-29 22:00:00 TS -13.3010 92.6894 60 975 bom main 1468 1468 P____PO_____P_ SH191997 -13.4121 92.7988 45 0 -13.0800 92.5600 3 35 990 -13.3000 92.6000 30 60 975 4.00000 188 3 5 -13.4121 92.7988 TC 45 8 216
1997013S08101 1997 5 SI WA HELINDA:PANCHO 1997-01-30 00:00:00 TS -13.5183 92.5192 main 1498 1498 O____OP_____O_ jtwc_sh SH191997 -13.6000 92.6000 45 0 -13.3000 92.4000 3 35 990 3.00000 3.00000 -13.5733 92.4768 30 60 975 188 -13.6000 92.6000 TC 45 8 219
1997013S08101 1997 5 SI WA HELINDA:PANCHO 1997-01-30 01:00:00 TS -13.6170 92.4285 60 975 bom main 1513 1513 P____PO_____P_ SH191997 -13.6811 92.4999 45 0 -13.4057 92.3140 3 35 990 -13.7000 92.4000 30 60 975 4.00000 188 3 5 -13.6811 92.4999 TC 45 8 227
1997013S08101 1997 5 SI WA HELINDA:PANCHO 1997-01-30 03:00:00 TS -13.7871 92.2240 main 1543 1543 P____PP_____P_ SH191997 -13.8149 92.2798 45 0 -13.6075 92.1224 3 35 990 -13.9112 92.2138 30 60 975 188 -13.8149 92.2798 TC 45 8 231
1997013S08101 1997 5 SI WA HELINDA:PANCHO 1997-01-30 04:00:00 TS -13.8639 92.1096 60 975 bom main 1558 1558 P____PO_____P_ SH191997 -13.8750 92.1598 45 0 -13.7054 92.0187 3 35 990 -14.0000 92.1000 30 60 975 4.00000 188 3 5 -13.8750 92.1598 TC 45 8 237
1997013S08101 1997 5 SI WA HELINDA:PANCHO 1997-01-30 06:00:00 TS -14.0149 91.8569 main 1578 1578 O____OP_____O_ jtwc_sh SH191997 -14.0000 91.9000 45 0 -13.9000 91.8000 3 35 990 3.00000 3.00000 -14.1597 91.8276 30 61 973 188 -14.0000 91.9000 TC 45 9 238
1997013S08101 1997 5 SI WA HELINDA:PANCHO 1997-01-30 09:00:00 TS -14.2690 91.4301 main 1634 1634 P____PP_____P_ SH191997 -14.2576 91.4501 45 0 -14.2149 91.4650 3 35 990 -14.3460 91.3552 30 64 970 188 -14.2576 91.4501 TC 45 10 239
1997013S08101 1997 5 SI WA HELINDA:PANCHO 1997-01-30 10:00:00 TS -14.3508 91.2842 65 970 bom main 1649 1649 P____PO_____P_ SH191997 -14.3438 91.2952 45 0 -14.3157 91.3467 3 35 990 -14.4000 91.2000 40 65 970 4.50000 188 3 5 -14.3438 91.2952 TC 45 9 241
1997013S08101 1997 5 SI WA HELINDA:PANCHO 1997-01-30 12:00:00 TS -14.5020 91.0063 main 1676 1676 O____OP_____O_ jtwc_sh SH191997 -14.5000 91.0000 45 0 -14.5000 91.1000 3 35 990 3.00000 3.00000 -14.5078 90.9253 40 65 970 188 -14.5000 91.0000 TC 45 9 243
1997013S08101 1997 5 SI WA HELINDA:PANCHO 1997-01-30 15:00:00 TS -14.6781 90.6307 main 1718 1718 P____PP_____P_ SH191997 -14.6723 90.6424 45 0 -14.7150 90.7074 3 35 990 -14.6526 90.5307 40 65 970 188 -14.6723 90.6424 TC 45 8 245
1997013S08101 1997 5 SI WA HELINDA:PANCHO 1997-01-30 16:00:00 TS -14.7287 90.5081 65 970 bom main 1724 1724 P____PO_____P_ SH191997 -14.7186 90.5303 45 0 -14.7775 90.5720 3 35 990 -14.7000 90.4000 40 65 970 4.50000 188 3 5 -14.7186 90.5303 TC 45 8 248
1997013S08101 1997 5 SI WA HELINDA:PANCHO 1997-01-30 18:00:00 TS -14.8263 90.2583 main 1745 1745 O____OP_____O_ jtwc_sh SH191997 -14.8000 90.3000 45 0 -14.9000 90.3000 3 35 990 3.00000 3.00000 -14.8054 90.1333 40 66 968 188 -14.8000 90.3000 TC 45 8 248
1997013S08101 1997 5 SI MM HELINDA:PANCHO 1997-01-30 21:00:00 TS -14.9751 89.8639 main 1787 1787 P____PP_____P_ SH191997 -14.9075 89.9074 47 0 -15.1299 89.9076 3 37 989 -14.9557 89.7333 40 69 965 188 -14.9075 89.9074 TC 47 8 249
1997013S08101 1997 5 SI MM HELINDA:PANCHO 1997-01-30 22:00:00 TS -15.0189 89.7297 main 1800 1800 P____PO_____P_ SH191997 -14.9387 89.7720 48 0 -15.1982 89.7747 3 38 988 -15.0000 89.6000 40 70 965 4.50000 188 3 5 -14.9387 89.7720 TC 48 8 253
1997013S08101 1997 5 SI MM HELINDA:PANCHO 1997-01-31 00:00:00 TS -15.0972 89.4546 40 988 reunion main 1821 1821 O____OP_____O_ jtwc_sh SH191997 -15.0000 89.5000 50 0 -15.3000 89.5000 3 40 988 3.00000 3.00000 -15.0889 89.3185 40 70 965 188 -15.0000 89.5000 TC 50 8 256
1997013S08101 1997 5 SI MM HELINDA:PANCHO 1997-01-31 03:00:00 TS -15.1899 89.0288 main 1862 1862 P____PP_____P_ SH191997 -15.1150 89.0851 52 0 -15.3451 89.0274 3 42 984 -15.1843 88.9178 40 70 965 188 -15.1150 89.0851 TC 52 8 258
1997013S08101 1997 5 SI MM HELINDA:PANCHO 1997-01-31 04:00:00 TS -15.2090 88.8939 main 1868 1868 P____PO_____P_ SH191997 -15.1491 88.9509 53 0 -15.3376 88.8737 3 43 982 -15.2000 88.8000 40 70 965 4.50000 188 3 5 -15.1491 88.9509 TC 53 7 264
1997013S08101 1997 5 SI MM HELINDA:PANCHO 1997-01-31 06:00:00 TS -15.2259 88.6512 45 980 reunion main 1881 1881 O____OP_____O_ jtwc_sh SH191997 -15.2000 88.7000 55 0 -15.3000 88.6000 3 45 980 3.50000 3.50000 -15.2035 88.6048 40 70 965 170 -15.2000 88.7000 TC 55 7 267
1997013S08101 1997 5 SI MM HELINDA:PANCHO 1997-01-31 07:00:00 TS -15.2239 88.5427 main 1894 1894 P____PO_____P_ SH191997 -15.2114 88.5885 55 0 -15.2727 88.4938 3 46 979 -15.2000 88.5000 40 70 965 4.50000 161 3 4 5 -15.2114 88.5885 TC 55 6 273
1997013S08101 1997 5 SI MM HELINDA:PANCHO 1997-01-31 09:00:00 TS -15.2081 88.3310 main 1908 1908 P____PP_____P_ SH191997 -15.2149 88.3849 57 0 -15.1998 88.3199 3 48 977 -15.2026 88.2343 40 73 961 161 -15.2149 88.3849 TC 57 6 275
1997013S08101 1997 5 SI MM HELINDA:PANCHO 1997-01-31 10:00:00 TS -15.1958 88.2308 main 1915 1915 P____PO_____P_ SH191997 -15.2108 88.2891 58 0 -15.1616 88.2449 3 49 976 -15.2000 88.1000 40 75 960 4.50000 161 3 5 -15.2108 88.2891 TC 58 6 278
1997013S08101 1997 5 SI MM HELINDA:PANCHO 1997-01-31 12:00:00 TS -15.1682 88.0446 52 975 reunion main 1928 1928 O____OP_____O_ jtwc_sh SH191997 -15.2000 88.1000 60 0 -15.1000 88.1000 3 52 975 4.00000 4.00000 -15.1726 87.8784 40 75 960 161 -15.2000 88.1000 TC 60 5 276
1997013S08101 1997 5 SI MM HELINDA:PANCHO 1997-01-31 15:00:00 TS -15.1498 87.7757 main 1933 1933 P____PP_____P_ SH191997 -15.1999 87.8225 62 0 -15.0849 87.8651 3 56 972 -15.1147 87.5928 40 75 960 161 -15.1999 87.8225 TC 62 5 273
1997013S08101 1997 5 SI MM HELINDA:PANCHO 1997-01-31 16:00:00 TS -15.1472 87.6825 main 1940 1940 P____PO_____P_ SH191997 -15.1999 87.7237 63 0 -15.0891 87.7825 3 57 971 -15.1000 87.5000 40 75 960 4.50000 161 3 5 -15.1999 87.7237 TC 63 6 270
1997013S08101 1997 5 SI MM HELINDA:PANCHO 1997-01-31 18:00:00 TS -15.1518 87.4750 60 970 reunion main 1963 1963 O____OP_____O_ jtwc_sh SH191997 -15.2000 87.5000 65 1 -15.1000 87.6000 3 60 970 4.50000 4.50000 -15.1074 87.3001 40 76 958 161 -15.2000 87.5000 TC 65 7 269
1997013S08101 1997 5 SI MM HELINDA:PANCHO 1997-01-31 21:00:00 TS -15.1591 87.0894 main 1991 1991 P____PP_____P_ SH191997 -15.2076 87.0500 70 1 -15.1075 87.2575 3 65 962 -15.1135 87.0000 40 79 955 161 -15.2076 87.0500 TC 70 8 270
1997013S08101 1997 5 SI MM HELINDA:PANCHO 1997-01-31 22:00:00 TS -15.1560 86.9554 main 1998 2004 P____PO_____P_ SH191997 -15.2080 86.8926 71 1 -15.1079 87.1363 3 66 959 -15.1000 86.9000 40 80 955 5.00000 161 3 5 -15.2080 86.8926 TC 71 8 274
1997013S08101 1997 5 SI MM HELINDA:PANCHO 1997-02-01 00:00:00 TS -15.1321 86.7000 70 955 reunion main 2012 2012 O____OP_____O_ jtwc_sh SH191997 -15.2000 86.6000 75 1 -15.1000 86.9000 4 70 955 5.00000 5.00000 -15.0285 86.7000 40 83 951 161 -15.2000 86.6000 TC 75 7 277
1997013S08101 1997 5 SI MM HELINDA:PANCHO 1997-02-01 01:00:00 TS -15.1154 86.5880 main 2019 2019 P____PO_____P_ SH191997 -15.1863 86.4802 77 1 -15.0890 86.7917 4 71 953 -15.0000 86.6000 40 85 950 5.00000 161 3 5 -15.1863 86.4802 TC 77 6 278
1997013S08101 1997 5 SI MM HELINDA:PANCHO 1997-02-01 03:00:00 TS -15.0879 86.3812 main 2034 2034 P____PP_____P_ SH191997 -15.1499 86.2700 82 1 -15.0575 86.5850 4 75 950 -14.9946 86.4000 40 88 946 161 -15.1499 86.2700 TC 82 6 278
1997013S08101 1997 5 SI MM HELINDA:PANCHO 1997-02-01 04:00:00 TS -15.0751 86.2845 main 2041 2041 P____PO_____P_ SH191997 -15.1308 86.1758 85 2 -15.0387 86.4867 4 76 948 -15.0000 86.3000 40 90 945 5.50000 161 5 4 5 -15.1308 86.1758 TC 85 5 278
1997013S08101 1997 5 SI MM HELINDA:PANCHO 1997-02-01 06:00:00 TS -15.0480 86.1000 80 945 reunion main 2048 2048 O____OP_____O_ jtwc_sh SH191997 -15.1000 86.0000 90 2 -15.0000 86.3000 4 80 945 5.50000 5.50000 -14.9921 86.1000 40 93 941 178 -15.1000 86.0000 TC 90 5 278
1997013S08101 1997 5 SI MM HELINDA:PANCHO 1997-02-01 07:00:00 TS -15.0358 86.0056 main 2056 2056 P____PO_____P_ SH191997 -15.0864 85.9083 91 2 -14.9702 86.2057 4 80 945 -15.0000 86.0000 40 95 940 5.50000 188 8 4 5 -15.0864 85.9083 TC 91 5 274
1997013S08101 1997 5 SI MM HELINDA:PANCHO 1997-02-01 09:00:00 TS -15.0276 85.8231 main 2071 2071 P____PP_____P_ SH191997 -15.0700 85.7350 95 2 -14.9125 86.0274 4 80 945 -15.0580 85.7949 40 95 940 188 -15.0700 85.7350 TC 95 5 270
1997013S08101 1997 5 SI MM HELINDA:PANCHO 1997-02-01 10:00:00 TS -15.0339 85.7380 main 2078 2078 P____PO_____P_ SH191997 -15.0708 85.6533 96 3 -14.8938 85.9454 4 80 945 -15.1000 85.7000 40 95 940 5.50000 188 5 4 5 -15.0708 85.6533 TC 96 5 259
1997013S08101 1997 5 SI MM HELINDA:PANCHO 1997-02-01 12:00:00 TS -15.0735 85.5851 80 945 reunion main 2094 2094 O____OP_____O_ jtwc_sh SH191997 -15.1000 85.5000 100 3 -14.9000 85.8000 4 80 945 5.00000 5.50000 -15.1939 85.5404 40 95 940 188 -15.1000 85.5000 TC 100 5 242
1997013S08101 1997 5 SI MM HELINDA:PANCHO 1997-02-01 15:00:00 TS -15.2173 85.3786 main 2117 2117 P____PP_____P_ SH191997 -15.2275 85.2626 105 3 -15.0625 85.6350 4 80 945 -15.3519 85.3540 40 95 940 188 -15.2275 85.2626 TC 105 5 231
1997013S08101 1997 5 SI MM HELINDA:PANCHO 1997-02-01 16:00:00 TS -15.2767 85.3205 main 2133 2133 P____PO_____P_ SH191997 -15.2837 85.1964 106 3 -15.1395 85.5892 4 80 945 -15.4000 85.3000 40 95 940 5.50000 188 3 5 -15.2837 85.1964 TC 106 5 222
1997013S08101 1997 5 SI MM HELINDA:PANCHO 1997-02-01 18:00:00 TS -15.3898 85.2213 80 945 reunion main 2148 2148 O____OP_____O_ jtwc_sh SH191997 -15.4000 85.1000 110 3 -15.3000 85.5000 4 80 945 5.00000 5.50000 -15.4592 85.1851 40 95 938 188 -15.4000 85.1000 TC 110 4 216
1997013S08101 1997 5 SI MM HELINDA:PANCHO 1997-02-01 21:00:00 TS -15.5364 85.1269 main 2164 2164 P____PP_____P_ SH191997 -15.5500 85.0625 112 3 -15.4925 85.3425 4 75 950 -15.5532 85.0401 40 95 935 188 -15.5500 85.0625 TC 112 3 210
1997013S08101 1997 5 SI MM HELINDA:PANCHO 1997-02-01 22:00:00 TS -15.5897 85.1082 main 2171 2171 P____PO_____P_ SH191997 -15.6000 85.0703 113 4 -15.5588 85.2921 4 73 951 -15.6000 85.0000 40 95 935 5.50000 188 3 5 -15.6000 85.0703 TC 113 4 195
1997013S08101 1997 5 SI MM HELINDA:PANCHO 1997-02-02 00:00:00 TS -15.7074 85.0808 70 955 reunion main 2179 2179 O____OP_____O_ jtwc_sh SH191997 -15.7000 85.1000 115 4 -15.7000 85.2000 4 70 955 4.50000 5.00000 -15.7298 84.9232 40 95 938 188 -15.7000 85.1000 TC 115 4 190
1997013S08101 1997 5 SI MM HELINDA:PANCHO 1997-02-02 01:00:00 TS -15.7681 85.0714 main 2187 2187 P____PO_____P_ SH191997 -15.7474 85.1136 115 4 -15.7776 85.1583 4 70 955 -15.8000 84.9000 40 95 940 5.50000 188 3 5 -15.7474 85.1136 TC 115 4 184
1997013S08101 1997 5 SI MM HELINDA:PANCHO 1997-02-02 03:00:00 TS -15.8882 85.0679 main 2195 2195 P____PP_____P_ SH191997 -15.8425 85.1500 115 4 -15.9425 85.0850 4 70 955 -15.9254 84.8867 40 91 943 188 -15.8425 85.1500 TC 115 4 175
1997013S08101 1997 5 SI MM HELINDA:PANCHO 1997-02-02 04:00:00 TS -15.9530 85.0729 main 2203 2203 P____PO_____P_ SH191997 -15.8921 85.1691 115 4 -16.0279 85.0533 4 70 955 -16.0000 84.9000 40 90 945 5.50000 188 11 4 5 -15.8921 85.1691 TC 115 4 0
1997013S08101 1997 5 SI MM HELINDA:PANCHO 1997-02-02 06:00:00 TS -16.0986 85.0883 70 955 reunion main 2211 2211 O____OP_____O_ jtwc_sh SH191997 -16.0000 85.2000 115 4 -16.2000 85.0000 4 70 955 4.50000 5.00000 -16.1946 84.9533 40 86 948 188 -16.0000 85.2000 TC 115 5 0
1997013S08101 1997 5 SI MM HELINDA:PANCHO 1997-02-02 07:00:00 TS -16.1770 85.0946 main 2219 2219 P____PO_____P_ SH191997 -16.0610 85.2031 114 4 -16.2860 84.9724 4 69 956 -16.3000 85.0000 40 85 950 5.00000 188 11 4 5 -16.0610 85.2031 TC 114 5 0
1997013S08101 1997 5 SI MM HELINDA:PANCHO 1997-02-02 09:00:00 TS -16.3369 85.1143 main 2227 2227 P____PP_____P_ SH191997 -16.1925 85.2000 112 3 -16.4575 84.9275 4 67 960 -16.5052 85.1298 40 81 953 188 -16.1925 85.2000 TC 112 5 173
1997013S08101 1997 5 SI MM HELINDA:PANCHO 1997-02-02 10:00:00 TS -16.4159 85.1268 main 2235 2235 P____PO_____P_ SH191997 -16.2612 85.1976 111 3 -16.5412 84.9121 4 66 961 -16.6000 85.2000 40 80 955 5.00000 188 11 4 5 -16.2612 85.1976 TC 111 5 171
1997013S08101 1997 5 SI MM HELINDA:PANCHO 1997-02-02 12:00:00 TS -16.5649 85.1539 65 965 reunion main 2244 2244 O____OP_____O_ jtwc_sh SH191997 -16.4000 85.2000 110 3 -16.7000 84.9000 4 65 965 4.00000 4.50000 -16.7596 85.3155 40 76 958 188 -16.4000 85.2000 TC 110 4 167
1997013S08101 1997 5 SI MM HELINDA:PANCHO 1997-02-02 15:00:00 TS -16.7671 85.2123 main 2260 2260 P____PP_____P_ SH191997 -16.6075 85.2350 107 3 -16.9075 84.9200 4 62 967 -16.9460 85.4591 40 71 963 188 -16.6075 85.2350 TC 107 4 163
1997013S08101 1997 5 SI MM HELINDA:PANCHO 1997-02-02 16:00:00 TS -16.8303 85.2367 main 2260 2260 P____PO_____P_ SH191997 -16.6746 85.2533 106 3 -16.9721 84.9400 4 61 968 -17.0000 85.5000 40 70 965 4.50000 188 3 5 -16.6746 85.2533 TC 106 4 156
1997013S08101 1997 5 SI MM HELINDA:PANCHO 1997-02-02 18:00:00 TS -16.9520 85.2937 60 970 reunion main 2269 2269 O____OP_____O_ jtwc_sh SH191997 -16.8000 85.3000 105 3 -17.1000 85.0000 3 60 970 4.00000 4.50000 -17.1079 85.5746 40 70 965 188 -16.8000 85.3000 TC 105 4 153
1997013S08101 1997 5 SI MM HELINDA:PANCHO 1997-02-02 21:00:00 TS -17.1244 85.3898 main 2270 2270 P____PP_____P_ SH191997 -16.9650 85.3850 102 3 -17.3150 85.1200 3 56 972 -17.2526 85.6693 40 70 965 188 -16.9650 85.3850 TC 102 4 150
1997013S08101 1997 5 SI MM HELINDA:PANCHO 1997-02-02 22:00:00 TS -17.1773 85.4283 main 2279 2272 P____PO_____P_ SH191997 -17.0133 85.4200 101 3 -17.3824 85.1733 3 54 973 -17.3000 85.7000 40 70 965 4.50000 188 3 5 -17.0133 85.4200 TC 101 4 142
1997013S08101 1997 5 SI MM HELINDA:PANCHO 1997-02-03 00:00:00 TS -17.2763 85.5162 52 975 reunion main 2280 2273 O____OP_____O_ jtwc_sh SH191997 -17.1000 85.5000 100 3 -17.5000 85.3000 3 52 975 3.50000 4.00000 -17.4053 85.7649 40 68 966 188 -17.1000 85.5000 TC 100 4 134
1997013S08101 1997 5 SI MM HELINDA:PANCHO 1997-02-03 03:00:00 TS -17.3983 85.6656 main 2275 2275 P____PP_____P_ SH191997 -17.2075 85.6350 97 3 -17.6225 85.5275 3 52 975 -17.5556 85.8648 40 65 969 188 -17.2075 85.6350 TC 97 4 128
1997013S08101 1997 5 SI MM HELINDA:PANCHO 1997-02-03 04:00:00 TS -17.4324 85.7220 main 2275 2268 P____PO_____P_ SH191997 -17.2387 85.6867 96 3 -17.6521 85.6146 3 52 975 -17.6000 85.9000 40 65 970 4.50000 188 3 5 -17.2387 85.6867 TC 96 4 119
1997013S08101 1997 5 SI MM HELINDA:PANCHO 1997-02-03 06:00:00 TS -17.4933 85.8434 52 975 reunion main 2276 2262 O____OP_____O_ jtwc_sh SH191997 -17.3000 85.8000 95 2 -17.7000 85.8000 3 52 975 3.50000 4.00000 -17.6733 85.9735 40 63 971 188 -17.3000 85.8000 TC 95 4 116
1997013S08101 1997 5 SI MM HELINDA:PANCHO 1997-02-03 09:00:00 TS -17.5825 86.0442 main 2271 2258 P____PP_____P_ SH191997 -17.4075 85.9925 90 2 -17.7575 86.1000 3 48 977 -17.7576 86.0917 40 60 974 188 -17.4075 85.9925 TC 90 4 112
1997013S08101 1997 5 SI MM HELINDA:PANCHO 1997-02-03 12:00:00 TS -17.6555 86.2547 45 980 reunion main 2259 2246 O____OP_____O_ jtwc_sh SH191997 -17.5000 86.2000 85 2 -17.8000 86.4000 3 45 980 3.50000 3.50000 -17.8222 86.2186 40 58 976 188 -17.5000 86.2000 TC 85 4 107
1997013S08101 1997 5 SI MM HELINDA:PANCHO 1997-02-03 15:00:00 TS -17.7057 86.4771 main 2246 2246 P____PP_____P_ SH191997 -17.5425 86.4225 80 1 -17.8575 86.7100 3 45 980 -17.8800 86.3534 40 55 979 188 -17.5425 86.4225 TC 80 4 104
1997013S08101 1997 5 SI MM HELINDA:PANCHO 1997-02-03 16:00:00 TS -17.7218 86.5437 main 2246 2240 P____PO_____P_ SH191997 -17.5563 86.4904 78 1 -17.8746 86.7941 3 45 980 -17.9000 86.4000 30 55 980 4.00000 188 3 5 -17.5563 86.4904 TC 78 4 108
1997013S08101 1997 5 SI MM HELINDA:PANCHO 1997-02-03 18:00:00 TS -17.7612 86.6572 45 980 reunion main 2242 2242 O____OP_____O_ jtwc_sh SH191997 -17.6000 86.6000 75 1 -17.9000 86.9000 3 45 980 3.00000 3.50000 -17.9448 86.5289 30 52 981 188 -17.6000 86.6000 TC 75 3 121
1997013S08101 1997 5 SI MM HELINDA:PANCHO 1997-02-03 21:00:00 TS -17.8342 86.7373 main 2242 2242 P____PP_____P_ SH191997 -17.7200 86.6800 70 1 -17.8850 86.8600 3 45 980 -18.0118 86.7293 30 48 984 188 -17.7200 86.6800 TC 70 2 154
1997013S08101 1997 5 SI MM HELINDA:PANCHO 1997-02-04 00:00:00 TS -17.9460 86.7497 45 980 reunion main 2251 2251 O____OP_____O_ jtwc_sh SH191997 -17.9000 86.7000 65 1 -17.9000 86.7000 3 45 980 2.50000 3.50000 -18.0841 86.8988 30 45 986 188 -17.9000 86.7000 TC 65 3 0
1997013S08101 1997 5 SI MM HELINDA:PANCHO 1997-02-04 03:00:00 TS -18.1202 86.7526 main 2262 2262 P____PP_____P_ SH191997 -18.1425 86.7299 60 0 -18.0275 86.5575 3 42 984 -18.1682 86.9930 30 41 989 188 -18.1425 86.7299 TC 60 4 184
1997013S08101 1997 5 SI MM HELINDA:PANCHO 1997-02-04 04:00:00 TS -18.1861 86.7409 main 2277 2277 P____PO_____P_ SH191997 -18.2303 86.7291 58 0 -18.0837 86.5055 3 41 985 -18.2000 87.0000 30 40 990 3.00000 188 4 5 -18.2303 86.7291 TC 58 4 198
1997013S08101 1997 5 SI MM HELINDA:PANCHO 1997-02-04 06:00:00 TS -18.3189 86.6861 40 988 reunion main 2286 2286 O____OP_____O_ jtwc_sh SH191997 -18.4000 86.7000 55 0 -18.2000 86.4000 3 40 988 2.50000 3.00000 -18.2756 86.9444 30 -18.4000 86.7000 TC 55 4 213
1997013S08101 1997 5 SI MM HELINDA:PANCHO 1997-02-04 09:00:00 TS -18.4870 86.5382 main 2317 2317 P____PP_____P_ SH191997 -18.6000 86.5725 52 0 -18.3425 86.2500 3 35 991 -18.4054 86.7577 30 -18.6000 86.5725 TC 52 5 224
1997013S08101 1997 5 SI MM HELINDA:PANCHO 1997-02-04 12:00:00 TS -18.6627 86.3418 30 995 reunion main 2348 2348 O____OP_____O_ jtwc_sh SH191997 -18.8000 86.4000 50 0 -18.5000 86.1000 2 30 995 2.00000 2.50000 -18.5509 86.4673 30 -18.8000 86.4000 TC 50 5 224
1997013S08101 1997 5 SI MM HELINDA:PANCHO 1997-02-04 15:00:00 TS -18.8787 86.1402 main 2378 2378 P____PP_____P_ SH191997 -19.0575 86.2575 47 0 -18.6925 85.9500 2 30 995 -18.7073 86.0956 30 -19.0575 86.2575 TC 47 6 223
1997013S08101 1997 5 SI MM HELINDA:PANCHO 1997-02-04 18:00:00 TS -19.0925 85.9163 30 995 reunion main 2409 2409 O____OP_____O_ jtwc_sh SH191997 -19.3000 86.1000 45 0 -18.9000 85.8000 2 30 995 2.00000 2.50000 -18.8699 85.6652 30 -19.3000 86.1000 TC 45 6 229
1997013S08101 1997 5 SI MM HELINDA:PANCHO 1997-02-04 21:00:00 TS -19.2623 85.6753 main 2439 2439 P____PP_____P_ SH191997 -19.4575 85.9149 42 0 -19.0999 85.6724 2 30 995 -19.0342 85.1990 30 -19.4575 85.9149 TC 42 6 236
1997013S08101 1997 5 SI MM HELINDA:PANCHO 1997-02-05 00:00:00 TS -19.4240 85.4049 30 995 reunion main 2467 2467 O____OP_____O_ jtwc_sh SH191997 -19.6000 85.7000 40 0 -19.3000 85.5000 2 30 995 2.00000 2.50000 -19.1958 84.7196 30 -19.6000 85.7000 TC 40 6 237
1997013S08101 1997 5 SI MM HELINDA:PANCHO 1997-02-05 03:00:00 TS -19.6126 85.1119 main 2504 2504 P____PP_____P_ SH191997 -19.7998 85.4874 37 0 -19.5000 85.2225 2 27 997 -19.3506 84.2503 30 -19.7998 85.4874 TC 37 7 236
1997013S08101 1997 5 SI MM HELINDA:PANCHO 1997-02-05 04:00:00 TS -19.6762 85.0059 main 2520 2520 P____PO_____P_ SH191997 -19.8690 85.4036 36 0 -19.5667 85.1163 2 26 998 -19.4000 84.1000 20 25 1000 2.00000 215 3 5 -19.8690 85.4036 TC 36 7 237
1997013S08101 1997 5 SI MM HELINDA:PANCHO 1997-02-05 06:00:00 TS -19.8036 84.8010 25 1000 reunion main 2541 2541 O____OP_____O_ jtwc_sh SH191997 -20.0000 85.2000 35 0 -19.7000 84.9000 2 25 1000 2.00000 2.00000 -19.5146 83.9041 20 -20.0000 85.2000 TC 35 7 240
1997013S08101 1997 5 SI MM HELINDA:PANCHO 1997-02-05 09:00:00 TS -19.9796 84.4534 main 2579 2579 P____PP_____P_ SH191997 -20.1651 84.7800 35 0 -19.8998 84.6298 2 25 1000 -19.6885 83.6236 20 -20.1651 84.7800 TC 35 8 244
1997013S08101 1997 5 SI MM HELINDA:PANCHO 1997-02-05 12:00:00 TS -20.1397 84.0627 25 1000 reunion main 2614 2614 O____OP_____O_ jtwc_sh SH191997 -20.3000 84.3000 35 0 -20.1000 84.3000 2 25 1000 1.50000 2.00000 -19.8590 83.3509 20 -20.3000 84.3000 TC 35 8 247
1997013S08101 1997 5 SI MM HELINDA:PANCHO 1997-02-05 15:00:00 TS -20.2908 83.6629 main 2658 2645 P____PP_____P_ SH191997 -20.4147 83.8724 35 0 -20.3151 83.8301 2 25 1001 -20.0188 83.0766 20 -20.4147 83.8724 TC 35 8 251
1997013S08101 1997 5 SI MM HELINDA:PANCHO 1997-02-05 18:00:00 TS -20.4153 83.2228 25 1002 reunion main 2645 2602 O____OP_____O_ jtwc_sh SH191997 -20.5000 83.4000 35 0 -20.5000 83.3000 2 25 1002 1.50000 2.00000 -20.1611 82.7913 20 -20.5000 83.4000 TC 35 9 256
1997013S08101 1997 5 SI MM HELINDA:PANCHO 1997-02-05 21:00:00 TS -20.5096 82.7327 main 2592 2539 P____PP_____P_ SH191997 -20.5649 82.8300 32 -1 -20.6300 82.7850 2 22 1003 -20.2787 82.4857 20 -20.5649 82.8300 TC 32 10 261
1997013S08101 1997 5 SI MM HELINDA:PANCHO 1997-02-06 00:00:00 TS -20.5661 82.2126 20 1004 reunion main 2539 2487 O____OP_____O_ jtwc_sh SH191997 -20.6000 82.2000 30 -1 -20.7000 82.3000 2 20 1004 1.50000 1.50000 -20.3645 82.1503 20 -20.6000 82.2000 TC 30 10 265
1997013S08101 1997 5 SI MM HELINDA:PANCHO 1997-02-06 03:00:00 TS -20.5964 81.6996 main 2487 2435 P____PP_____P_ SH191997 -20.6223 81.5576 30 -1 -20.7296 81.9075 2 20 1004 -20.4112 81.7758 20 -20.6223 81.5576 TC 30 10 269
1997013S08101 1997 5 SI MM HELINDA:PANCHO 1997-02-06 06:00:00 TS -20.5779 81.1633 20 1004 reunion main 2435 2415 O____OP_____O_ jtwc_sh SH191997 -20.6000 80.9000 30 -1 -20.7000 81.5000 6 20 1004 1.50000 1.50000 -20.4115 81.3532 20 -20.6000 80.9000 TC 30 10 273
1997013S08101 1997 5 SI MM HELINDA:PANCHO 1997-02-06 07:00:00 TS -20.5604 80.9771 main 2415 2374 P____PO_____P_ SH191997 -20.5806 80.6833 30 -1 -20.6806 81.3417 6 -20.4000 81.2000 20 25 1000 2.00000 215 3 5 -20.5806 80.6833 TC 30 11 278
1997013S08101 1997 5 SI MM HELINDA:PANCHO 1997-02-06 09:00:00 TS -20.5063 80.5923 main 2374 2312 P____PP_____P_ SH191997 -20.5223 80.2500 30 -1 -20.6223 80.9950 6 -20.3586 80.8740 20 -20.5223 80.2500 TC 30 11 280
1997013S08101 1997 5 SI MM HELINDA:PANCHO 1997-02-06 12:00:00 TS -20.3884 79.9850 reunion main 2312 2250 O____OP_____O_ jtwc_sh SH191997 -20.4000 79.6000 30 -1 -20.5000 80.4000 6 9.90000 -20.2535 80.3401 20 -20.4000 79.6000 TC 30 12 282
1997013S08101 1997 5 SI MM HELINDA:PANCHO 1997-02-06 15:00:00 TS -20.2457 79.3342 main 2241 2179 P____PP_____P_ SH191997 -20.2574 78.9350 27 -1 -20.3651 79.7075 6 -20.1027 79.7592 20 -20.2574 78.9350 TC 27 13 284
1997013S08101 1997 5 SI MM HELINDA:PANCHO 1997-02-06 18:00:00 TS -20.0781 78.6849 reunion main 2179 2118 O____OP_____O_ jtwc_sh SH191997 -20.1000 78.3000 25 -1 -20.2000 79.0000 6 9.90000 -19.9126 79.1395 20 -20.1000 78.3000 TC 25 12 286
1997013S08101 1997 5 SI MM HELINDA:PANCHO 1997-02-06 21:00:00 TS -19.9067 78.0786 main 2118 2058 P____PP_____P_ SH191997 -19.9572 77.7352 25 -1 -20.0224 78.3551 6 -19.6899 78.4889 20 -19.9572 77.7352 TC 25 12 288
1997013S08101 1997 5 SI MM HELINDA:PANCHO 1997-02-07 00:00:00 TS -19.7044 77.4842 reunion main 2058 1997 O____OP_____O_ jtwc_sh SH191997 -19.8000 77.2000 25 -1 -19.8000 77.8000 6 9.90000 -19.4414 77.8156 20 -19.8000 77.2000 TC 25 12 290
1997013S08101 1997 5 SI MM HELINDA:PANCHO 1997-02-07 03:00:00 TS -19.4935 76.8655 main 1997 1937 P____PP_____P_ SH191997 -19.6074 76.6425 25 -1 -19.5176 77.3647 6 -19.1739 77.1274 20 -19.6074 76.6425 TC 25 12 289
1997013S08101 1997 5 SI MM HELINDA:PANCHO 1997-02-07 06:00:00 TS -19.2899 76.2422 reunion main 1927 1906 O____OP_____O_ jtwc_sh SH191997 -19.4000 76.1000 25 -1 -19.2000 77.0000 6 9.90000 -18.8945 76.4320 20 -19.4000 76.1000 TC 25 13 285
1997013S08101 1997 5 SI MM HELINDA:PANCHO 1997-02-07 07:00:00 TS -19.2716 75.9579 main 1906 1865 P_____O_____P_ SH191997 -19.3306 75.9277 25 -1 6 -18.8000 76.2000 20 25 1000 2.00000 215 3 5 -19.3306 75.9277 TC 25 12 279
1997013S08101 1997 5 SI MM HELINDA:PANCHO 1997-02-07 09:00:00 TS -19.1923 75.5926 main 1865 1816 P___________P_ SH191997 -19.1923 75.5926 25 -1 6 20 -19.1923 75.5926 TC 25 10 289
1997013S08101 1997 5 SI MM HELINDA:PANCHO 1997-02-07 12:00:00 TS -19.0000 75.1000 main 1816 1765 O___________O_ jtwc_sh SH191997 -19.0000 75.1000 25 -1 20 -19.0000 75.1000 TC 25 10 290
1997013S08101 1997 5 SI MM HELINDA:PANCHO 1997-02-07 15:00:00 TS -18.8499 74.6002 main 1767 1717 P___________P_ SH191997 -18.8499 74.6002 25 -1 20 -18.8499 74.6002 TC 25 10 288
1997013S08101 1997 5 SI MM HELINDA:PANCHO 1997-02-07 18:00:00 TS -18.7000 74.1000 main 1717 1668 O___________O_ jtwc_sh SH191997 -18.7000 74.1000 25 -1 20 -18.7000 74.1000 TC 25 10 289
1997013S08101 1997 5 SI MM HELINDA:PANCHO 1997-02-07 21:00:00 TS -18.5222 73.6152 main 1668 1620 P___________P_ SH191997 -18.5222 73.6152 25 -1 20 -18.5222 73.6152 TC 25 10 293
1997013S08101 1997 5 SI MM HELINDA:PANCHO 1997-02-08 00:00:00 TS -18.3000 73.1000 main 1620 1562 O___________O_ jtwc_sh SH191997 -18.3000 73.1000 25 -1 20 -18.3000 73.1000 TC 25 12 295
1997013S08101 1997 5 SI MM HELINDA:PANCHO 1997-02-08 03:00:00 TS -18.0374 72.5152 main 1564 1510 P___________P_ SH191997 -18.0374 72.5152 25 -1 20 -18.0374 72.5152 TC 25 13 298
1997013S08101 1997 5 SI MM HELINDA:PANCHO 1997-02-08 06:00:00 TS -17.7000 71.9000 main 1510 1459 O___________O_ jtwc_sh SH191997 -17.7000 71.9000 25 -1 20 -17.7000 71.9000 TC 25 14 305
1997013S08101 1997 5 SI MM HELINDA:PANCHO 1997-02-08 09:00:00 TS -17.2497 71.3149 main 1462 1414 P___________P_ SH191997 -17.2497 71.3149 22 -1 -17.2497 71.3149 TC 22 15 308
1997013S08101 1997 5 SI MM HELINDA:PANCHO 1997-02-08 12:00:00 TS -16.8000 70.7000 main 1414 1355 O___________O_ jtwc_sh SH191997 -16.8000 70.7000 20 -1 -16.8000 70.7000 TC 20 15 302
1997013S08101 1997 5 SI MM HELINDA:PANCHO 1997-02-08 15:00:00 TS -16.4775 70.0078 main 1355 1297 P___________P_ SH191997 -16.4775 70.0078 20 -1 -16.4775 70.0078 TC 20 15 294
1997013S08101 1997 5 SI MM HELINDA:PANCHO 1997-02-08 18:00:00 TS -16.2000 69.3000 main 1297 1247 O___________O_ jtwc_sh SH191997 -16.2000 69.3000 20 -1 -16.2000 69.3000 TC 20 14 294
1997013S08101 1997 5 SI MM HELINDA:PANCHO 1997-02-08 21:00:00 TS -15.8998 68.6352 main 1242 1199 P___________P_ SH191997 -15.8998 68.6352 20 -1 -15.8998 68.6352 TC 20 14 296
1997013S08101 1997 5 SI MM HELINDA:PANCHO 1997-02-09 00:00:00 TS -15.6000 68.0000 main 1199 1159 O___________O_ jtwc_sh SH191997 -15.6000 68.0000 20 -1 -15.6000 68.0000 TC 20 13 296
1997013S08101 1997 5 SI MM HELINDA:PANCHO 1997-02-09 03:00:00 TS -15.3073 67.3928 main 1159 1120 P___________P_ SH191997 -15.3073 67.3928 20 -1 -15.3073 67.3928 TC 20 13 297
1997013S08101 1997 5 SI MM HELINDA:PANCHO 1997-02-09 06:00:00 TS -15.0000 66.8000 main 1120 1085 O___________O_ jtwc_sh SH191997 -15.0000 66.8000 20 -1 -15.0000 66.8000 TC 20 13 299
1997013S08101 1997 5 SI MM HELINDA:PANCHO 1997-02-09 09:00:00 TS -14.6573 66.2001 main 1085 1060 P___________P_ SH191997 -14.6573 66.2001 20 -1 -14.6573 66.2001 TC 20 14 301
1997013S08101 1997 5 SI MM HELINDA:PANCHO 1997-02-09 12:00:00 TS -14.3000 65.6000 main 1060 1033 O___________O_ jtwc_sh SH191997 -14.3000 65.6000 20 -1 -14.3000 65.6000 TC 20 14 301
1997013S08101 1997 5 SI MM HELINDA:PANCHO 1997-02-09 15:00:00 TS -13.9424 64.9926 main 1040 1017 P___________P_ SH191997 -13.9424 64.9926 20 -1 -13.9424 64.9926 TC 20 14 301
1997013S08101 1997 5 SI MM HELINDA:PANCHO 1997-02-09 18:00:00 TS -13.6000 64.4000 main 1018 1005 O___________O_ jtwc_sh SH191997 -13.6000 64.4000 20 -1 -13.6000 64.4000 TC 20 13 301
1997013S08101 1997 5 SI MM HELINDA:PANCHO 1997-02-09 21:00:00 TS -13.2623 63.8500 main 1007 993 P___________P_ SH191997 -13.2623 63.8500 20 -1 -13.2623 63.8500 TC 20 12 299
1997013S08101 1997 5 SI MM HELINDA:PANCHO 1997-02-10 00:00:00 TS -13.0000 63.3000 main 993 965 O___________O_ jtwc_sh SH191997 -13.0000 63.3000 20 -1 -13.0000 63.3000 TC 20 12 290
1997013S08101 1997 5 SI MM HELINDA:PANCHO 1997-02-10 03:00:00 TS -12.8550 62.7001 main 965 942 P___________P_ SH191997 -12.8550 62.7001 20 -1 -12.8550 62.7001 TC 20 12 280
1997013S08101 1997 5 SI MM HELINDA:PANCHO 1997-02-10 06:00:00 TS -12.8000 62.1000 main 942 916 O___________O_ jtwc_sh SH191997 -12.8000 62.1000 20 -1 -12.8000 62.1000 TC 20 11 274
1997013S08101 1997 5 SI MM HELINDA:PANCHO 1997-02-10 09:00:00 TS -12.7849 61.5276 main 911 889 P___________P_ SH191997 -12.7849 61.5276 20 -1 -12.7849 61.5276 TC 20 11 270
1997013S08101 1997 5 SI MM HELINDA:PANCHO 1997-02-10 12:00:00 TS -12.8000 61.0000 main 889 869 O___________O_ jtwc_sh SH191997 -12.8000 61.0000 20 -1 -12.8000 61.0000 TC 20 10 269
1997013S08101 1997 5 SI MM HELINDA:PANCHO 1997-02-10 15:00:00 TS -12.7999 60.5200 main 869 856 P___________P_ SH191997 -12.7999 60.5200 20 -1 -12.7999 60.5200 TC 20 9 270
1997013S08101 1997 5 SI MM HELINDA:PANCHO 1997-02-10 18:00:00 TS -12.8000 60.1000 main 856 847 O___________O_ jtwc_sh SH191997 -12.8000 60.1000 20 -1 -12.8000 60.1000 TC 20 8 271
1997013S08101 1997 5 SI MM HELINDA:PANCHO 1997-02-10 21:00:00 TS -12.7924 59.7350 main 844 836 P___________P_ SH191997 -12.7924 59.7350 17 -1 -12.7924 59.7350 TC 17 7 270
1997013S08101 1997 5 SI MM HELINDA:PANCHO 1997-02-11 00:00:00 TS -12.8000 59.4000 main 836 830 O___________O_ jtwc_sh SH191997 -12.8000 59.4000 15 -1 -12.8000 59.4000 TC 15 7 266
1997013S08101 1997 5 SI MM HELINDA:PANCHO 1997-02-11 03:00:00 TS -12.8425 59.0425 main 828 812 P___________P_ SH191997 -12.8425 59.0425 15 -1 -12.8425 59.0425 TC 15 7 262
1997013S08101 1997 5 SI MM HELINDA:PANCHO 1997-02-11 06:00:00 TS -12.9000 58.7000 main 812 809 O___________O_ jtwc_sh SH191997 -12.9000 58.7000 15 -1 -12.9000 58.7000 TC 15 7 260
1997013S08101 1997 5 SI MM HELINDA:PANCHO 1997-02-11 09:00:00 TS -12.9500 58.3850 main 809 795 P___________P_ SH191997 -12.9500 58.3850 15 -1 -12.9500 58.3850 TC 15 6 260
1997013S08101 1997 5 SI MM HELINDA:PANCHO 1997-02-11 12:00:00 TS -13.0000 58.1000 main 795 794 O___________O_ jtwc_sh SH191997 -13.0000 58.1000 15 -1 -13.0000 58.1000 TC 15 5 259
1997013S08101 1997 5 SI MM HELINDA:PANCHO 1997-02-11 15:00:00 TS -13.0500 57.8425 main 794 783 P___________P_ SH191997 -13.0500 57.8425 15 -1 -13.0500 57.8425 TC 15 5 258
1997013S08101 1997 5 SI MM HELINDA:PANCHO 1997-02-11 18:00:00 TS -13.1000 57.6000 main 783 780 O___________O_ jtwc_sh SH191997 -13.1000 57.6000 15 -1 -13.1000 57.6000 TC 15 5 259
1997013S08101 1997 5 SI MM HELINDA:PANCHO 1997-02-11 21:00:00 TS -13.1425 57.3500 main 770 746 P___________P_ SH191997 -13.1425 57.3500 15 -1 -13.1425 57.3500 TC 15 5 258
1997013S08101 1997 5 SI MM HELINDA:PANCHO 1997-02-12 00:00:00 TS -13.2000 57.1000 main 746 722 O___________O_ jtwc_sh SH191997 -13.2000 57.1000 15 -1 -13.2000 57.1000 TC 15 5 252
1997013S08101 1997 5 SI MM HELINDA:PANCHO 1997-02-12 03:00:00 TS -13.3000 56.8500 main 722 687 P___________P_ SH191997 -13.3000 56.8500 15 -1 -13.3000 56.8500 TC 15 5 248
1997013S08101 1997 5 SI MM HELINDA:PANCHO 1997-02-12 06:00:00 TS -13.4000 56.6000 main 687 667 O___________O_ jtwc_sh SH191997 -13.4000 56.6000 15 -1 -13.4000 56.6000 TC 15 5 253
1997013S08101 1997 5 SI MM HELINDA:PANCHO 1997-02-12 09:00:00 TS -13.4500 56.3425 main 656 632 P___________P_ SH191997 -13.4500 56.3425 15 -1 -13.4500 56.3425 TC 15 5 258
1997013S08101 1997 5 SI MM HELINDA:PANCHO 1997-02-12 12:00:00 TS -13.5000 56.1000 main 632 608 O___________O_ jtwc_sh SH191997 -13.5000 56.1000 15 -1 -13.5000 56.1000 TC 15 5 251
1997013S08101 1997 5 SI MM HELINDA:PANCHO 1997-02-12 15:00:00 TS -13.6000 55.8925 main 608 584 P___________P_ SH191997 -13.6000 55.8925 15 -1 -13.6000 55.8925 TC 15 4 243
1997013S08101 1997 5 SI MM HELINDA:PANCHO 1997-02-12 18:00:00 TS -13.7000 55.7000 main 584 560 O___________O_ jtwc_sh SH191997 -13.7000 55.7000 15 -1 -13.7000 55.7000 TC 15 4 248
1997013S08101 1997 5 SI MM HELINDA:PANCHO 1997-02-12 21:00:00 TS -13.7575 55.4925 main 560 540 P___________P_ SH191997 -13.7575 55.4925 15 -1 -13.7575 55.4925 TC 15 4 256
1997013S08101 1997 5 SI MM HELINDA:PANCHO 1997-02-13 00:00:00 TS -13.8000 55.3000 main 540 526 O___________O_ jtwc_sh SH191997 -13.8000 55.3000 15 -1 -13.8000 55.3000 TC 15 4 254
1997013S08101 1997 5 SI MM HELINDA:PANCHO 1997-02-13 03:00:00 TS -13.8575 55.1425 main 516 505 P___________P_ SH191997 -13.8575 55.1425 15 -1 -13.8575 55.1425 TC 15 3 251
1997013S08101 1997 5 SI MM HELINDA:PANCHO 1997-02-13 06:00:00 TS -13.9000 55.0000 main 505 495 O___________O_ jtwc_sh SH191997 -13.9000 55.0000 15 -1 -13.9000 55.0000 TC 15 3 260
1997013S08101 1997 5 SI MM HELINDA:PANCHO 1997-02-13 09:00:00 TS -13.9075 54.8425 main 485 475 P___________P_ SH191997 -13.9075 54.8425 15 -1 -13.9075 54.8425 TC 15 3 270
1997013S08101 1997 5 SI MM HELINDA:PANCHO 1997-02-13 12:00:00 TS -13.9000 54.7000 main 475 464 O___________O_ jtwc_sh SH191997 -13.9000 54.7000 15 -1 -13.9000 54.7000 TC 15 2 272
1997013S08101 1997 5 SI MM HELINDA:PANCHO 1997-02-13 15:00:00 TS -13.9000 54.5925 main 464 454 P___________P_ SH191997 -13.9000 54.5925 15 -1 -13.9000 54.5925 TC 15 2 270
1997013S08101 1997 5 SI MM HELINDA:PANCHO 1997-02-13 18:00:00 TS -13.9000 54.5000 main 454 444 O___________O_ jtwc_sh SH191997 -13.9000 54.5000 15 -1 -13.9000 54.5000 TC 15 2 270
1997013S08101 1997 5 SI MM HELINDA:PANCHO 1997-02-13 21:00:00 TS -13.9000 54.4000 main 444 434 P___________P_ SH191997 -13.9000 54.4000 15 -1 -13.9000 54.4000 TC 15 2 270
1997013S08101 1997 5 SI MM HELINDA:PANCHO 1997-02-14 00:00:00 TS -13.9000 54.3000 main 434 424 O___________O_ jtwc_sh SH191997 -13.9000 54.3000 15 -1 -13.9000 54.3000 TC 15 2 270
1997013S08101 1997 5 SI MM HELINDA:PANCHO 1997-02-14 03:00:00 TS -13.9000 54.2000 main 424 414 P___________P_ SH191997 -13.9000 54.2000 15 -1 -13.9000 54.2000 TC 15 2 270
1997013S08101 1997 5 SI MM HELINDA:PANCHO 1997-02-14 06:00:00 TS -13.9000 54.1000 main 414 403 O___________O_ jtwc_sh SH191997 -13.9000 54.1000 15 -1 -13.9000 54.1000 TC 15 2 270
1997013S08101 1997 5 SI MM HELINDA:PANCHO 1997-02-14 09:00:00 TS -13.9000 54.0000 main 403 393 P___________P_ SH191997 -13.9000 54.0000 15 -1 -13.9000 54.0000 TC 15 2 270
1997013S08101 1997 5 SI MM HELINDA:PANCHO 1997-02-14 12:00:00 TS -13.9000 53.9000 main 393 O___________O_ jtwc_sh SH191997 -13.9000 53.9000 15 -1 -13.9000 53.9000 TC 15 2 270

About IBTrACS Database

This database is a web-friendly format of International Best Track Archive for Climate Stewardship (IBTrACS), a global best track data archive curated by NOAA dating back to 1842.

Updated: 2021-10-08